Observation data for Clyde on 04/23/2019      Previous  Date  Next       Current Mesonet Observations  Soil Data  Daily Summary Page  Observations in Plain Language
KCL2 230500Z 15010KT 20/15 A30 RMK A01 T01990150  RH  073%=      5-min Rain = 0
KCL2 230501Z 14011KT 20/15 A30 RMK A01 T01990150  RH  073%=      5-min Rain = 0
KCL2 230502Z 15010KT 20/15 A30 RMK A01 T01990150  RH  073%=      5-min Rain = 0
KCL2 230503Z 15009G14KT 20/15 A30 RMK A01 T01990150  RH  073%=      5-min Rain = 0
KCL2 230504Z 15011KT 20/15 A30 RMK A01 T01990150  RH  073%=      5-min Rain = 0
KCL2 230505Z 14010KT 20/15 A30 RMK A01 T01990150  RH  073%=      5-min Rain = 0
KCL2 230506Z 14009KT 20/15 A30 RMK A01 T01990150  RH  073%=      5-min Rain = 0
KCL2 230507Z 14010KT 20/15 A30 RMK A01 T01990150  RH  073%=      5-min Rain = 0
KCL2 230508Z 15011KT 20/15 A30 RMK A01 T01990150  RH  073%=      5-min Rain = 0
KCL2 230509Z 14009KT 20/15 A30 RMK A01 T01990150  RH  073%=      5-min Rain = 0
KCL2 230510Z 15009KT 20/15 A30 RMK A01 T01980150  RH  074%=      5-min Rain = 0
KCL2 230511Z 15010KT 20/15 A30 RMK A01 T01980150  RH  074%=      5-min Rain = 0
KCL2 230512Z 14009KT 20/15 A30 RMK A01 T01980150  RH  074%=      5-min Rain = 0
KCL2 230513Z 15009KT 20/15 A30 RMK A01 T01980150  RH  074%=      5-min Rain = 0
KCL2 230514Z 15010KT 20/15 A30 RMK A01 T01980150  RH  074%=      5-min Rain = 0
KCL2 230515Z 15008KT 20/15 A30 RMK A01 T01980150  RH  074%=      5-min Rain = 0
KCL2 230516Z 15007KT 20/15 A30 RMK A01 T01970150  RH  074%=      5-min Rain = 0
KCL2 230517Z 14009KT 20/15 A30 RMK A01 T01970150  RH  074%=      5-min Rain = 0
KCL2 230518Z 15007KT 20/15 A30 RMK A01 T01970150  RH  074%=      5-min Rain = 0
KCL2 230519Z 15008KT 20/15 A30 RMK A01 T01960150  RH  074%=      5-min Rain = 0
KCL2 230520Z 14008KT 20/15 A30 RMK A01 T01970150  RH  075%=      5-min Rain = 0
KCL2 230521Z 14008KT 20/15 A30 RMK A01 T01960150  RH  075%=      5-min Rain = 0
KCL2 230522Z 14008KT 20/15 A30 RMK A01 T01960150  RH  075%=      5-min Rain = 0
KCL2 230523Z 14009KT 20/15 A30 RMK A01 T01960150  RH  075%=      5-min Rain = 0
KCL2 230524Z 15009KT 20/15 A30 RMK A01 T01960150  RH  075%=      5-min Rain = 0
KCL2 230525Z 15008KT 20/15 A30 RMK A01 T01960150  RH  075%=      5-min Rain = 0
KCL2 230526Z 15007KT 20/15 A30 RMK A01 T01960150  RH  075%=      5-min Rain = 0
KCL2 230527Z 15008KT 20/15 A30 RMK A01 T01950150  RH  075%=      5-min Rain = 0
KCL2 230528Z 15010KT 20/15 A30 RMK A01 T01950150  RH  076%=      5-min Rain = 0
KCL2 230529Z 15012KT 19/15 A30 RMK A01 T01940150  RH  076%=      5-min Rain = 0
KCL2 230530Z 14009KT 19/15 A30 RMK A01 T01940150  RH  075%=      5-min Rain = 0
KCL2 230531Z 15007KT 20/15 A30 RMK A01 T01950150  RH  075%=      5-min Rain = 0
KCL2 230532Z 14006KT 19/15 A30 RMK A01 T01940150  RH  076%=      5-min Rain = 0
KCL2 230533Z 15007KT 19/15 A30 RMK A01 T01940150  RH  076%=      5-min Rain = 0
KCL2 230534Z 15007KT 19/15 A30 RMK A01 T01930150  RH  076%=      5-min Rain = 0
KCL2 230535Z 14009KT 19/15 A30 RMK A01 T01930150  RH  076%=      5-min Rain = 0
KCL2 230536Z 15011KT 19/15 A30 RMK A01 T01930150  RH  076%=      5-min Rain = 0
KCL2 230537Z 15008KT 19/15 A30 RMK A01 T01930150  RH  076%=      5-min Rain = 0
KCL2 230538Z 15009KT 19/15 A30 RMK A01 T01930150  RH  076%=      5-min Rain = 0
KCL2 230539Z 15009KT 19/15 A30 RMK A01 T01930150  RH  076%=      5-min Rain = 0
KCL2 230540Z 15007KT 19/15 A30 RMK A01 T01940151  RH  076%=      5-min Rain = 0
KCL2 230541Z 15008KT 19/15 A30 RMK A01 T01930151  RH  076%=      5-min Rain = 0
KCL2 230542Z 14007KT 19/15 A30 RMK A01 T01920150  RH  077%=      5-min Rain = 0
KCL2 230543Z 14008KT 19/15 A30 RMK A01 T01920150  RH  077%=      5-min Rain = 0
KCL2 230544Z 15008KT 19/15 A30 RMK A01 T01920150  RH  077%=      5-min Rain = 0
KCL2 230545Z 15009KT 19/15 A30 RMK A01 T01920150  RH  077%=      5-min Rain = 0
KCL2 230546Z 14009KT 19/15 A30 RMK A01 T01930151  RH  077%=      5-min Rain = 0
KCL2 230547Z 15010KT 19/15 A30 RMK A01 T01920151  RH  077%=      5-min Rain = 0
KCL2 230548Z 15008KT 19/15 A30 RMK A01 T01920150  RH  077%=      5-min Rain = 0
KCL2 230549Z 15010KT 19/15 A30 RMK A01 T01920150  RH  077%=      5-min Rain = 0
KCL2 230550Z 15008KT 19/15 A30 RMK A01 T01920151  RH  077%=      5-min Rain = 0
KCL2 230551Z 15008KT 19/15 A30 RMK A01 T01920151  RH  077%=      5-min Rain = 0
KCL2 230552Z 15007KT 19/15 A30 RMK A01 T01920151  RH  077%=      5-min Rain = 0
KCL2 230553Z 15007KT 19/15 A30 RMK A01 T01910150  RH  077%=      5-min Rain = 0
KCL2 230554Z 14008KT 19/15 A30 RMK A01 T01900150  RH  078%=      5-min Rain = 0
KCL2 230555Z 15007KT 19/15 A30 RMK A01 T01910151  RH  078%=      5-min Rain = 0
KCL2 230556Z 15007KT 19/15 A30 RMK A01 T01900151  RH  078%=      5-min Rain = 0
KCL2 230557Z 15007KT 19/15 A30 RMK A01 T01900151  RH  078%=      5-min Rain = 0
KCL2 230558Z 14010KT 19/15 A30 RMK A01 T01900151  RH  078%=      5-min Rain = 0
KCL2 230559Z 15010KT 19/15 A30 RMK A01 T01900151  RH  078%=      5-min Rain = 0
KCL2 230600Z 15009KT 19/15 A30 RMK A01 T01900150  RH  078%=      5-min Rain = 0
KCL2 230601Z 15008KT 19/15 A30 RMK A01 T01900151  RH  078%=      5-min Rain = 0
KCL2 230602Z 15010KT 19/15 A30 RMK A01 T01900151  RH  078%=      5-min Rain = 0
KCL2 230603Z 15009KT 19/15 A30 RMK A01 T01900151  RH  078%=      5-min Rain = 0
KCL2 230604Z 15008KT 19/15 A30 RMK A01 T01900151  RH  078%=      5-min Rain = 0
KCL2 230605Z 14009KT 19/15 A30 RMK A01 T01900151  RH  078%=      5-min Rain = 0
KCL2 230606Z 15010KT 19/15 A30 RMK A01 T01900151  RH  078%=      5-min Rain = 0
KCL2 230607Z 15009KT 19/15 A30 RMK A01 T01900151  RH  078%=      5-min Rain = 0
KCL2 230608Z 14008KT 19/15 A30 RMK A01 T01900151  RH  078%=      5-min Rain = 0
KCL2 230609Z 14009KT 19/15 A30 RMK A01 T01890151  RH  078%=      5-min Rain = 0
KCL2 230610Z 14009KT 19/15 A30 RMK A01 T01890151  RH  078%=      5-min Rain = 0
KCL2 230611Z 14009KT 19/15 A30 RMK A01 T01890151  RH  078%=      5-min Rain = 0
KCL2 230612Z 14008KT 19/15 A30 RMK A01 T01890151  RH  078%=      5-min Rain = 0
KCL2 230613Z 14009KT 19/15 A30 RMK A01 T01890151  RH  078%=      5-min Rain = 0
KCL2 230614Z 15008KT 19/15 A30 RMK A01 T01890151  RH  079%=      5-min Rain = 0
KCL2 230615Z 14008KT 19/15 A2999 RMK A01 T01890151  RH  079%=      5-min Rain = 0
KCL2 230616Z 14010KT 19/15 A2999 RMK A01 T01890152  RH  079%=      5-min Rain = 0
KCL2 230617Z 14007KT 19/15 A2999 RMK A01 T01890151  RH  079%=      5-min Rain = 0
KCL2 230618Z 14008KT 19/15 A2999 RMK A01 T01890152  RH  079%=      5-min Rain = 0
KCL2 230619Z 14008KT 19/15 A2999 RMK A01 T01880151  RH  079%=      5-min Rain = 0
KCL2 230620Z 14010KT 19/15 A2999 RMK A01 T01880151  RH  079%=      5-min Rain = 0
KCL2 230621Z 14009KT 19/15 A2999 RMK A01 T01880151  RH  079%=      5-min Rain = 0
KCL2 230622Z 14009KT 19/15 A2999 RMK A01 T01880151  RH  079%=      5-min Rain = 0
KCL2 230623Z 15007KT 19/15 A2999 RMK A01 T01880151  RH  079%=      5-min Rain = 0
KCL2 230624Z 14007KT 19/15 A2999 RMK A01 T01880151  RH  079%=      5-min Rain = 0
KCL2 230625Z 15009KT 19/15 A2999 RMK A01 T01880151  RH  079%=      5-min Rain = 0
KCL2 230626Z 15007G12KT 19/15 A2999 RMK A01 T01880151  RH  079%=      5-min Rain = 0
KCL2 230627Z 15009KT 19/15 A2999 RMK A01 T01880151  RH  079%=      5-min Rain = 0
KCL2 230628Z 15008KT 19/15 A30 RMK A01 T01880152  RH  079%=      5-min Rain = 0
KCL2 230629Z 15010KT 19/15 A30 RMK A01 T01880151  RH  079%=      5-min Rain = 0
KCL2 230630Z 16010KT 19/15 A2999 RMK A01 T01880151  RH  079%=      5-min Rain = 0
KCL2 230631Z 15008KT 19/15 A2999 RMK A01 T01880151  RH  079%=      5-min Rain = 0
KCL2 230632Z 15008KT 19/15 A2999 RMK A01 T01880151  RH  079%=      5-min Rain = 0
KCL2 230633Z 15007KT 19/15 A2999 RMK A01 T01880152  RH  079%=      5-min Rain = 0
KCL2 230634Z 15009KT 19/15 A2999 RMK A01 T01870151  RH  080%=      5-min Rain = 0
KCL2 230635Z 15010KT 19/15 A2999 RMK A01 T01870151  RH  080%=      5-min Rain = 0
KCL2 230636Z 16009KT 19/15 A2999 RMK A01 T01870151  RH  080%=      5-min Rain = 0
KCL2 230637Z 15007KT 19/15 A2999 RMK A01 T01870151  RH  080%=      5-min Rain = 0
KCL2 230638Z 15006KT 19/15 A2999 RMK A01 T01870151  RH  080%=      5-min Rain = 0
KCL2 230639Z 15008KT 19/15 A2999 RMK A01 T01860151  RH  080%=      5-min Rain = 0
KCL2 230640Z 15007KT 19/15 A2999 RMK A01 T01860151  RH  080%=      5-min Rain = 0
KCL2 230641Z 15007KT 19/15 A2999 RMK A01 T01860151  RH  080%=      5-min Rain = 0
KCL2 230642Z 15009KT 19/15 A30 RMK A01 T01850151  RH  080%=      5-min Rain = 0
KCL2 230643Z 16009KT 19/15 A30 RMK A01 T01860151  RH  080%=      5-min Rain = 0
KCL2 230644Z 16009KT 19/15 A30 RMK A01 T01850151  RH  080%=      5-min Rain = 0
KCL2 230645Z 15009KT 19/15 A30 RMK A01 T01850151  RH  080%=      5-min Rain = 0
KCL2 230646Z 16008KT 19/15 A30 RMK A01 T01860151  RH  080%=      5-min Rain = 0
KCL2 230647Z 16009KT 19/15 A30 RMK A01 T01850151  RH  080%=      5-min Rain = 0
KCL2 230648Z 15008KT 19/15 A30 RMK A01 T01850151  RH  080%=      5-min Rain = 0
KCL2 230649Z 15007KT 19/15 A30 RMK A01 T01850151  RH  081%=      5-min Rain = 0
KCL2 230650Z 15008KT 18/15 A30 RMK A01 T01840151  RH  081%=      5-min Rain = 0
KCL2 230651Z 15007KT 18/15 A30 RMK A01 T01840151  RH  081%=      5-min Rain = 0
KCL2 230652Z 15007KT 18/15 A30 RMK A01 T01840151  RH  081%=      5-min Rain = 0
KCL2 230653Z 16006KT 18/15 A30 RMK A01 T01840151  RH  081%=      5-min Rain = 0
KCL2 230654Z 15007KT 18/15 A30 RMK A01 T01840151  RH  081%=      5-min Rain = 0
KCL2 230655Z 15006KT 18/15 A30 RMK A01 T01830151  RH  081%=      5-min Rain = 0
KCL2 230656Z 16006KT 18/15 A30 RMK A01 T01830151  RH  081%=      5-min Rain = 0
KCL2 230657Z 16007KT 18/15 A30 RMK A01 T01830151  RH  081%=      5-min Rain = 0
KCL2 230658Z 15007KT 18/15 A30 RMK A01 T01830151  RH  082%=      5-min Rain = 0
KCL2 230659Z 16007KT 18/15 A30 RMK A01 T01820151  RH  082%=      5-min Rain = 0
KCL2 230700Z 15007KT 18/15 A2999 RMK A01 T01820150  RH  082%=      5-min Rain = 0
KCL2 230701Z 16007KT 18/15 A30 RMK A01 T01820151  RH  082%=      5-min Rain = 0
KCL2 230702Z 16007KT 18/15 A30 RMK A01 T01810150  RH  082%=      5-min Rain = 0
KCL2 230703Z 15008KT 18/15 A30 RMK A01 T01800150  RH  082%=      5-min Rain = 0
KCL2 230704Z 16008KT 18/15 A2999 RMK A01 T01800150  RH  083%=      5-min Rain = 0
KCL2 230705Z 15006KT 18/15 A2999 RMK A01 T01810151  RH  083%=      5-min Rain = 0
KCL2 230706Z 15008KT 18/15 A2999 RMK A01 T01800150  RH  083%=      5-min Rain = 0
KCL2 230707Z 15008KT 18/15 A2999 RMK A01 T01800150  RH  083%=      5-min Rain = 0
KCL2 230708Z 15007KT 18/15 A2999 RMK A01 T01800150  RH  083%=      5-min Rain = 0
KCL2 230709Z 16008KT 18/15 A2999 RMK A01 T01790150  RH  083%=      5-min Rain = 0
KCL2 230710Z 15007KT 18/15 A2999 RMK A01 T01790150  RH  083%=      5-min Rain = 0
KCL2 230711Z 15007KT 18/15 A2999 RMK A01 T01790150  RH  083%=      5-min Rain = 0
KCL2 230712Z 15008KT 18/15 A2999 RMK A01 T01790150  RH  083%=      5-min Rain = 0
KCL2 230713Z 16009KT 18/15 A2999 RMK A01 T01780150  RH  084%=      5-min Rain = 0
KCL2 230714Z 15008KT 18/15 A2999 RMK A01 T01790150  RH  083%=      5-min Rain = 0
KCL2 230715Z 15008KT 18/15 A2999 RMK A01 T01790150  RH  083%=      5-min Rain = 0
KCL2 230716Z 15007KT 18/15 A2999 RMK A01 T01780150  RH  083%=      5-min Rain = 0
KCL2 230717Z 15008KT 18/15 A2999 RMK A01 T01780150  RH  084%=      5-min Rain = 0
KCL2 230718Z 15008KT 18/15 A2998 RMK A01 T01780150  RH  084%=      5-min Rain = 0
KCL2 230719Z 15009KT 18/15 A2998 RMK A01 T01780150  RH  084%=      5-min Rain = 0
KCL2 230720Z 16009KT 18/15 A2998 RMK A01 T01780150  RH  084%=      5-min Rain = 0
KCL2 230721Z 16008KT 18/15 A2998 RMK A01 T01780150  RH  084%=      5-min Rain = 0
KCL2 230722Z 16007KT 18/15 A2998 RMK A01 T01780150  RH  084%=      5-min Rain = 0
KCL2 230723Z 16007KT 18/15 A2998 RMK A01 T01780150  RH  084%=      5-min Rain = 0
KCL2 230724Z 16007KT 18/15 A2998 RMK A01 T01780150  RH  084%=      5-min Rain = 0
KCL2 230725Z 16007KT 18/15 A2998 RMK A01 T01770150  RH  084%=      5-min Rain = 0
KCL2 230726Z 15009KT 18/15 A2998 RMK A01 T01770150  RH  084%=      5-min Rain = 0
KCL2 230727Z 15008KT 18/15 A2998 RMK A01 T01780150  RH  084%=      5-min Rain = 0
KCL2 230728Z 15008KT 18/15 A2998 RMK A01 T01780150  RH  084%=      5-min Rain = 0
KCL2 230729Z 16008KT 18/15 A2998 RMK A01 T01780150  RH  084%=      5-min Rain = 0
KCL2 230730Z 16006KT 18/15 A2998 RMK A01 T01780150  RH  084%=      5-min Rain = 0
KCL2 230731Z 16006KT 18/15 A2998 RMK A01 T01780149  RH  084%=      5-min Rain = 0
KCL2 230732Z 16006KT 18/15 A2998 RMK A01 T01770150  RH  084%=      5-min Rain = 0
KCL2 230733Z 15008KT 18/15 A2998 RMK A01 T01770149  RH  084%=      5-min Rain = 0
KCL2 230734Z 16008KT 18/15 A2998 RMK A01 T01770150  RH  084%=      5-min Rain = 0
KCL2 230735Z 15007KT 18/15 A2998 RMK A01 T01770149  RH  084%=      5-min Rain = 0
KCL2 230736Z 15008KT 18/15 A2998 RMK A01 T01770149  RH  084%=      5-min Rain = 0
KCL2 230737Z 16007KT 18/15 A2998 RMK A01 T01770150  RH  084%=      5-min Rain = 0
KCL2 230738Z 16007KT 18/15 A2998 RMK A01 T01770150  RH  084%=      5-min Rain = 0
KCL2 230739Z 15008KT 18/15 A2998 RMK A01 T01770150  RH  084%=      5-min Rain = 0
KCL2 230740Z 16009KT 18/15 A2998 RMK A01 T01770150  RH  084%=      5-min Rain = 0
KCL2 230741Z 16008KT 18/15 A2998 RMK A01 T01770149  RH  084%=      5-min Rain = 0
KCL2 230742Z 16007KT 18/15 A2998 RMK A01 T01770149  RH  084%=      5-min Rain = 0
KCL2 230743Z 16008KT 18/15 A2998 RMK A01 T01770149  RH  084%=      5-min Rain = 0
KCL2 230744Z 16007KT 18/15 A2998 RMK A01 T01760149  RH  084%=      5-min Rain = 0
KCL2 230745Z 16007KT 18/15 A2998 RMK A01 T01760149  RH  084%=      5-min Rain = 0
KCL2 230746Z 16008KT 18/15 A2998 RMK A01 T01750149  RH  085%=      5-min Rain = 0
KCL2 230747Z 15007KT 18/15 A2998 RMK A01 T01750149  RH  085%=      5-min Rain = 0
KCL2 230748Z 15008KT 18/15 A2998 RMK A01 T01750149  RH  085%=      5-min Rain = 0
KCL2 230749Z 16006KT 18/15 A2998 RMK A01 T01750149  RH  085%=      5-min Rain = 0
KCL2 230750Z 16006KT 18/15 A2998 RMK A01 T01750149  RH  085%=      5-min Rain = 0
KCL2 230751Z 16006KT 17/15 A2998 RMK A01 T01740149  RH  085%=      5-min Rain = 0
KCL2 230752Z 16007KT 17/15 A2998 RMK A01 T01740149  RH  085%=      5-min Rain = 0
KCL2 230753Z 16006KT 17/15 A2997 RMK A01 T01730149  RH  086%=      5-min Rain = 0
KCL2 230754Z 16007KT 17/15 A2997 RMK A01 T01720148  RH  086%=      5-min Rain = 0
KCL2 230755Z 16006KT 17/15 A2997 RMK A01 T01720149  RH  086%=      5-min Rain = 0
KCL2 230756Z 16006KT 17/15 A2997 RMK A01 T01720149  RH  086%=      5-min Rain = 0
KCL2 230757Z 16006KT 17/15 A2997 RMK A01 T01720148  RH  086%=      5-min Rain = 0
KCL2 230758Z 15007KT 17/15 A2997 RMK A01 T01720149  RH  086%=      5-min Rain = 0
KCL2 230759Z 16007KT 17/15 A2997 RMK A01 T01720148  RH  086%=      5-min Rain = 0
KCL2 230800Z 15008KT 17/15 A2997 RMK A01 T01720149  RH  086%=      5-min Rain = 0
KCL2 230801Z 16007KT 17/15 A2997 RMK A01 T01720148  RH  086%=      5-min Rain = 0
KCL2 230802Z 16006KT 17/15 A2997 RMK A01 T01720148  RH  086%=      5-min Rain = 0
KCL2 230803Z 16008KT 17/15 A2997 RMK A01 T01720148  RH  086%=      5-min Rain = 0
KCL2 230804Z 16008KT 17/15 A2997 RMK A01 T01720148  RH  086%=      5-min Rain = 0
KCL2 230805Z 16007KT 17/15 A2997 RMK A01 T01720148  RH  086%=      5-min Rain = 0
KCL2 230806Z 16007KT 17/15 A2997 RMK A01 T01710148  RH  086%=      5-min Rain = 0
KCL2 230807Z 16008KT 17/15 A2997 RMK A01 T01710148  RH  086%=      5-min Rain = 0
KCL2 230808Z 16006KT 17/15 A2997 RMK A01 T01710148  RH  086%=      5-min Rain = 0
KCL2 230809Z 16008KT 17/15 A2997 RMK A01 T01710148  RH  086%=      5-min Rain = 0
KCL2 230810Z 15008KT 17/15 A2997 RMK A01 T01710148  RH  086%=      5-min Rain = 0
KCL2 230811Z 16007KT 17/15 A2997 RMK A01 T01710148  RH  086%=      5-min Rain = 0
KCL2 230812Z 16007KT 17/15 A2996 RMK A01 T01710148  RH  086%=      5-min Rain = 0
KCL2 230813Z 16007KT 17/15 A2996 RMK A01 T01710148  RH  086%=      5-min Rain = 0
KCL2 230814Z 16007KT 17/15 A2996 RMK A01 T01700147  RH  086%=      5-min Rain = 0
KCL2 230815Z 15007KT 17/15 A2996 RMK A01 T01700148  RH  086%=      5-min Rain = 0
KCL2 230816Z 16007KT 17/15 A2996 RMK A01 T01700147  RH  087%=      5-min Rain = 0
KCL2 230817Z 15008KT 17/15 A2996 RMK A01 T01690147  RH  087%=      5-min Rain = 0
KCL2 230818Z 16007KT 17/15 A2996 RMK A01 T01690147  RH  087%=      5-min Rain = 0
KCL2 230819Z 16007KT 17/15 A2996 RMK A01 T01690147  RH  087%=      5-min Rain = 0
KCL2 230820Z 16008KT 17/15 A2996 RMK A01 T01690147  RH  087%=      5-min Rain = 0
KCL2 230821Z 15007KT 17/15 A2996 RMK A01 T01690147  RH  087%=      5-min Rain = 0
KCL2 230822Z 15008KT 17/15 A2996 RMK A01 T01690147  RH  087%=      5-min Rain = 0
KCL2 230823Z 15008KT 17/15 A2996 RMK A01 T01680147  RH  087%=      5-min Rain = 0
KCL2 230824Z 16007KT 17/15 A2996 RMK A01 T01680147  RH  087%=      5-min Rain = 0
KCL2 230825Z 15007KT 17/15 A2996 RMK A01 T01680147  RH  087%=      5-min Rain = 0
KCL2 230826Z 15008KT 17/15 A2996 RMK A01 T01680147  RH  087%=      5-min Rain = 0
KCL2 230827Z 15009KT 17/15 A2996 RMK A01 T01680147  RH  088%=      5-min Rain = 0
KCL2 230828Z 15009KT 17/15 A2996 RMK A01 T01670147  RH  088%=      5-min Rain = 0
KCL2 230829Z 15010KT 17/15 A2995 RMK A01 T01680147  RH  087%=      5-min Rain = 0
KCL2 230830Z 16009KT 17/15 A2995 RMK A01 T01680147  RH  087%=      5-min Rain = 0
KCL2 230831Z 16008KT 17/15 A2996 RMK A01 T01690147  RH  087%=      5-min Rain = 0
KCL2 230832Z 16008KT 17/15 A2996 RMK A01 T01690147  RH  087%=      5-min Rain = 0
KCL2 230833Z 16007KT 17/15 A2995 RMK A01 T01680147  RH  087%=      5-min Rain = 0
KCL2 230834Z 15007KT 17/15 A2996 RMK A01 T01680147  RH  087%=      5-min Rain = 0
KCL2 230835Z 16008KT 17/15 A2996 RMK A01 T01680147  RH  087%=      5-min Rain = 0
KCL2 230836Z 16008KT 17/15 A2996 RMK A01 T01680147  RH  088%=      5-min Rain = 0
KCL2 230837Z 15007KT 17/15 A2996 RMK A01 T01680147  RH  088%=      5-min Rain = 0
KCL2 230838Z 16010KT 17/15 A2996 RMK A01 T01670147  RH  088%=      5-min Rain = 0
KCL2 230839Z 16009KT 17/15 A2996 RMK A01 T01670147  RH  088%=      5-min Rain = 0
KCL2 230840Z 16007KT 17/15 A2996 RMK A01 T01680147  RH  087%=      5-min Rain = 0
KCL2 230841Z 16008KT 17/15 A2996 RMK A01 T01680147  RH  087%=      5-min Rain = 0
KCL2 230842Z 16009KT 17/15 A2996 RMK A01 T01680147  RH  087%=      5-min Rain = 0
KCL2 230843Z 16007KT 17/15 A2996 RMK A01 T01680147  RH  088%=      5-min Rain = 0
KCL2 230844Z 16008KT 17/15 A2996 RMK A01 T01680147  RH  088%=      5-min Rain = 0
KCL2 230845Z 16008KT 17/15 A2996 RMK A01 T01670147  RH  088%=      5-min Rain = 0
KCL2 230846Z 16009KT 17/15 A2996 RMK A01 T01680147  RH  088%=      5-min Rain = 0
KCL2 230847Z 16008KT 17/15 A2996 RMK A01 T01670147  RH  088%=      5-min Rain = 0
KCL2 230848Z 16007KT 17/15 A2997 RMK A01 T01670147  RH  088%=      5-min Rain = 0
KCL2 230849Z 16006KT 17/15 A2997 RMK A01 T01670147  RH  088%=      5-min Rain = 0
KCL2 230850Z 16007KT 17/15 A2997 RMK A01 T01670147  RH  088%=      5-min Rain = 0
KCL2 230851Z 16007KT 17/15 A2997 RMK A01 T01670147  RH  088%=      5-min Rain = 0
KCL2 230852Z 15006KT 17/15 A2997 RMK A01 T01660147  RH  088%=      5-min Rain = 0
KCL2 230853Z 16006KT 17/15 A2997 RMK A01 T01660147  RH  088%=      5-min Rain = 0
KCL2 230854Z 16007KT 17/15 A2997 RMK A01 T01650146  RH  088%=      5-min Rain = 0
KCL2 230855Z 16007KT 17/15 A2997 RMK A01 T01650147  RH  089%=      5-min Rain = 0
KCL2 230856Z 16007KT 17/15 A2997 RMK A01 T01650146  RH  089%=      5-min Rain = 0
KCL2 230857Z 15007KT 17/15 A2997 RMK A01 T01650146  RH  089%=      5-min Rain = 0
KCL2 230858Z 16007KT 17/15 A2997 RMK A01 T01650146  RH  089%=      5-min Rain = 0
KCL2 230859Z 16008KT 17/15 A2997 RMK A01 T01650146  RH  089%=      5-min Rain = 0
KCL2 230900Z 16007KT 17/15 A2997 RMK A01 T01650146  RH  089%=      5-min Rain = 0
KCL2 230901Z 15006KT 17/15 A2997 RMK A01 T01650146  RH  089%=      5-min Rain = 0
KCL2 230902Z 15007KT 16/15 A2997 RMK A01 T01640146  RH  089%=      5-min Rain = 0
KCL2 230903Z 16008KT 16/15 A2997 RMK A01 T01640146  RH  089%=      5-min Rain = 0
KCL2 230904Z 16008KT 16/15 A2997 RMK A01 T01640146  RH  089%=      5-min Rain = 0
KCL2 230905Z 15007KT 16/15 A2997 RMK A01 T01640146  RH  089%=      5-min Rain = 0
KCL2 230906Z 15008KT 16/15 A2997 RMK A01 T01640146  RH  089%=      5-min Rain = 0
KCL2 230907Z 16007KT 17/15 A2997 RMK A01 T01650146  RH  089%=      5-min Rain = 0
KCL2 230908Z 16006KT 17/15 A2997 RMK A01 T01650146  RH  089%=      5-min Rain = 0
KCL2 230909Z 15006KT 16/15 A2997 RMK A01 T01640146  RH  089%=      5-min Rain = 0
KCL2 230910Z 16008KT 16/15 A2997 RMK A01 T01640146  RH  089%=      5-min Rain = 0
KCL2 230911Z 15007KT 16/15 A2997 RMK A01 T01640146  RH  089%=      5-min Rain = 0
KCL2 230912Z 16007KT 16/15 A2997 RMK A01 T01640146  RH  089%=      5-min Rain = 0
KCL2 230913Z 15007KT 16/15 A2997 RMK A01 T01640146  RH  089%=      5-min Rain = 0
KCL2 230914Z 15008KT 16/15 A2997 RMK A01 T01640146  RH  089%=      5-min Rain = 0
KCL2 230915Z 15008KT 16/15 A2997 RMK A01 T01640146  RH  089%=      5-min Rain = 0
KCL2 230916Z 15006KT 16/15 A2997 RMK A01 T01640146  RH  089%=      5-min Rain = 0
KCL2 230917Z 15007KT 16/15 A2997 RMK A01 T01640146  RH  089%=      5-min Rain = 0
KCL2 230918Z 15008KT 16/15 A2997 RMK A01 T01630146  RH  089%=      5-min Rain = 0
KCL2 230919Z 16007KT 16/15 A2997 RMK A01 T01630146  RH  090%=      5-min Rain = 0
KCL2 230920Z 16007KT 16/15 A2997 RMK A01 T01630146  RH  089%=      5-min Rain = 0
KCL2 230921Z 15007KT 16/15 A2997 RMK A01 T01640146  RH  089%=      5-min Rain = 0
KCL2 230922Z 15007KT 16/15 A2997 RMK A01 T01630146  RH  089%=      5-min Rain = 0
KCL2 230923Z 15006KT 16/15 A2997 RMK A01 T01630146  RH  089%=      5-min Rain = 0
KCL2 230924Z 15007KT 16/15 A2997 RMK A01 T01630146  RH  090%=      5-min Rain = 0
KCL2 230925Z 15007KT 16/15 A2997 RMK A01 T01620146  RH  090%=      5-min Rain = 0
KCL2 230926Z 15006KT 16/15 A2997 RMK A01 T01630146  RH  090%=      5-min Rain = 0
KCL2 230927Z 15006KT 16/15 A2997 RMK A01 T01620146  RH  090%=      5-min Rain = 0
KCL2 230928Z 15007KT 16/15 A2997 RMK A01 T01630146  RH  090%=      5-min Rain = 0
KCL2 230929Z 15006KT 16/15 A2997 RMK A01 T01630146  RH  090%=      5-min Rain = 0
KCL2 230930Z 16008KT 16/15 A2997 RMK A01 T01630146  RH  090%=      5-min Rain = 0
KCL2 230931Z 16007KT 16/15 A2997 RMK A01 T01630147  RH  090%=      5-min Rain = 0
KCL2 230932Z 15006KT 16/15 A2997 RMK A01 T01630147  RH  090%=      5-min Rain = 0
KCL2 230933Z 15006KT 16/15 A2997 RMK A01 T01630146  RH  090%=      5-min Rain = 0
KCL2 230934Z 15007KT 16/15 A2997 RMK A01 T01640147  RH  090%=      5-min Rain = 0
KCL2 230935Z 15007KT 16/15 A2997 RMK A01 T01640147  RH  090%=      5-min Rain = 0
KCL2 230936Z 15005KT 16/15 A2997 RMK A01 T01640147  RH  089%=      5-min Rain = 0
KCL2 230937Z 15006KT 16/15 A2997 RMK A01 T01640147  RH  089%=      5-min Rain = 0
KCL2 230938Z 15006KT 16/15 A2997 RMK A01 T01640147  RH  089%=      5-min Rain = 0
KCL2 230939Z 15005KT 16/15 A2997 RMK A01 T01640147  RH  089%=      5-min Rain = 0
KCL2 230940Z 15006KT 16/15 A2998 RMK A01 T01640147  RH  089%=      5-min Rain = 0
KCL2 230941Z 16006KT 16/15 A2998 RMK A01 T01640147  RH  089%=      5-min Rain = 0
KCL2 230942Z 15006KT 16/15 A2998 RMK A01 T01640147  RH  089%=      5-min Rain = 0
KCL2 230943Z 15006KT 16/15 A2998 RMK A01 T01640147  RH  089%=      5-min Rain = 0
KCL2 230944Z 15006KT 17/15 A2998 RMK A01 T01650147  RH  089%=      5-min Rain = 0
KCL2 230945Z 16007KT 17/15 A2998 RMK A01 T01650147  RH  089%=      5-min Rain = 0
KCL2 230946Z 15007KT 17/15 A2998 RMK A01 T01650147  RH  089%=      5-min Rain = 0
KCL2 230947Z 16007KT 17/15 A2998 RMK A01 T01650147  RH  089%=      5-min Rain = 0
KCL2 230948Z 15006KT 17/15 A2998 RMK A01 T01650147  RH  089%=      5-min Rain = 0
KCL2 230949Z 15007KT 17/15 A2998 RMK A01 T01650147  RH  089%=      5-min Rain = 0
KCL2 230950Z 15008KT 17/15 A2998 RMK A01 T01650147  RH  089%=      5-min Rain = 0
KCL2 230951Z 15007KT 17/15 A2997 RMK A01 T01650147  RH  089%=      5-min Rain = 0
KCL2 230952Z 16008KT 17/15 A2997 RMK A01 T01650148  RH  089%=      5-min Rain = 0
KCL2 230953Z 15007KT 17/15 A2997 RMK A01 T01650147  RH  089%=      5-min Rain = 0
KCL2 230954Z 15007KT 17/15 A2997 RMK A01 T01650147  RH  089%=      5-min Rain = 0
KCL2 230955Z 15007KT 17/15 A2997 RMK A01 T01650147  RH  089%=      5-min Rain = 0
KCL2 230956Z 15007KT 17/15 A2997 RMK A01 T01650147  RH  089%=      5-min Rain = 0
KCL2 230957Z 15006KT 17/15 A2997 RMK A01 T01650148  RH  089%=      5-min Rain = 0
KCL2 230958Z 15008KT 17/15 A2997 RMK A01 T01650147  RH  089%=      5-min Rain = 0
KCL2 230959Z 16008KT 17/15 A2997 RMK A01 T01650148  RH  089%=      5-min Rain = 0
KCL2 231000Z 16008KT 17/15 A2998 RMK A01 T01660148  RH  089%=      5-min Rain = 0
KCL2 231001Z 16006KT 17/15 A2998 RMK A01 T01660148  RH  089%=      5-min Rain = 0
KCL2 231002Z 16007KT 17/15 A2998 RMK A01 T01660148  RH  089%=      5-min Rain = 0
KCL2 231003Z 16008KT 17/15 A2997 RMK A01 T01660148  RH  089%=      5-min Rain = 0
KCL2 231004Z 16007KT 17/15 A2997 RMK A01 T01660148  RH  089%=      5-min Rain = 0
KCL2 231005Z 16008KT 17/15 A2998 RMK A01 T01660148  RH  089%=      5-min Rain = 0
KCL2 231006Z 16008KT 17/15 A2998 RMK A01 T01660149  RH  089%=      5-min Rain = 0
KCL2 231007Z 16007KT 17/15 A2998 RMK A01 T01660148  RH  089%=      5-min Rain = 0
KCL2 231008Z 17007KT 17/15 A2998 RMK A01 T01660148  RH  089%=      5-min Rain = 0
KCL2 231009Z 17007KT 17/15 A2998 RMK A01 T01660148  RH  089%=      5-min Rain = 0
KCL2 231010Z 16007KT 17/15 A2998 RMK A01 T01660149  RH  089%=      5-min Rain = 0
KCL2 231011Z 16006KT 17/15 A2998 RMK A01 T01660149  RH  089%=      5-min Rain = 0
KCL2 231012Z 16006KT 17/15 A2998 RMK A01 T01660149  RH  089%=      5-min Rain = 0
KCL2 231013Z 17008KT 17/15 A2998 RMK A01 T01660149  RH  090%=      5-min Rain = 0
KCL2 231014Z 16008KT 17/15 A2998 RMK A01 T01660149  RH  090%=      5-min Rain = 0
KCL2 231015Z 16007KT 17/15 A2998 RMK A01 T01660149  RH  089%=      5-min Rain = 0
KCL2 231016Z 16007KT 17/15 A2998 RMK A01 T01660149  RH  089%=      5-min Rain = 0
KCL2 231017Z 17007KT 17/15 A2998 RMK A01 T01660149  RH  090%=      5-min Rain = 0
KCL2 231018Z 16006KT 17/15 A2998 RMK A01 T01660149  RH  089%=      5-min Rain = 0
KCL2 231019Z 16007KT 17/15 A2998 RMK A01 T01660149  RH  090%=      5-min Rain = 0
KCL2 231020Z 16006KT 17/15 A2998 RMK A01 T01660149  RH  089%=      5-min Rain = 0
KCL2 231021Z 17008KT 17/15 A2998 RMK A01 T01670149  RH  089%=      5-min Rain = 0
KCL2 231022Z 16007KT 17/15 A2998 RMK A01 T01670149  RH  089%=      5-min Rain = 0
KCL2 231023Z 16007KT 17/15 A2998 RMK A01 T01670149  RH  089%=      5-min Rain = 0
KCL2 231024Z 16007KT 17/15 A2998 RMK A01 T01670149  RH  089%=      5-min Rain = 0
KCL2 231025Z 16006KT 17/15 A2998 RMK A01 T01670149  RH  089%=      5-min Rain = 0
KCL2 231026Z 16007KT 17/15 A2998 RMK A01 T01670149  RH  089%=      5-min Rain = 0
KCL2 231027Z 17007KT 17/15 A2998 RMK A01 T01670149  RH  089%=      5-min Rain = 0
KCL2 231028Z 17009KT 17/15 A2998 RMK A01 T01670149  RH  089%=      5-min Rain = 0
KCL2 231029Z 17007KT 17/15 A2998 RMK A01 T01670150  RH  089%=      5-min Rain = 0
KCL2 231030Z 16006KT 17/15 A2998 RMK A01 T01680150  RH  089%=      5-min Rain = 0
KCL2 231031Z 17008KT 17/15 A2998 RMK A01 T01670150  RH  089%=      5-min Rain = 0
KCL2 231032Z 17007KT 17/15 A2998 RMK A01 T01680150  RH  089%=      5-min Rain = 0
KCL2 231033Z 17009KT 17/15 A2998 RMK A01 T01670150  RH  089%=      5-min Rain = 0
KCL2 231034Z 16009KT 17/15 A2998 RMK A01 T01670150  RH  089%=      5-min Rain = 0
KCL2 231035Z 16008KT 17/15 A2998 RMK A01 T01670150  RH  089%=      5-min Rain = 0
KCL2 231036Z 17007KT 17/15 A2998 RMK A01 T01680150  RH  089%=      5-min Rain = 0
KCL2 231037Z 16008KT 17/15 A2998 RMK A01 T01680150  RH  089%=      5-min Rain = 0
KCL2 231038Z 16010KT 17/15 A2998 RMK A01 T01680150  RH  089%=      5-min Rain = 0
KCL2 231039Z 16009KT 17/15 A2998 RMK A01 T01680150  RH  089%=      5-min Rain = 0
KCL2 231040Z 17008KT 17/15 A2998 RMK A01 T01680150  RH  089%=      5-min Rain = 0
KCL2 231041Z 16008KT 17/15 A2998 RMK A01 T01670150  RH  089%=      5-min Rain = 0
KCL2 231042Z 16007KT 17/15 A2998 RMK A01 T01680150  RH  089%=      5-min Rain = 0
KCL2 231043Z 16008KT 17/15 A2998 RMK A01 T01680151  RH  090%=      5-min Rain = 0
KCL2 231044Z 16009KT 17/15 A2998 RMK A01 T01680150  RH  090%=      5-min Rain = 0
KCL2 231045Z 16009KT 17/15 A2998 RMK A01 T01670150  RH  090%=      5-min Rain = 0
KCL2 231046Z 16008KT 17/15 A2998 RMK A01 T01680151  RH  090%=      5-min Rain = 0
KCL2 231047Z 17008KT 17/15 A2998 RMK A01 T01680151  RH  090%=      5-min Rain = 0
KCL2 231048Z 16007KT 17/15 A2998 RMK A01 T01670150  RH  090%=      5-min Rain = 0
KCL2 231049Z 16008KT 17/15 A2998 RMK A01 T01670150  RH  090%=      5-min Rain = 0
KCL2 231050Z 16009KT 17/15 A2998 RMK A01 T01670150  RH  090%=      5-min Rain = 0
KCL2 231051Z 16007KT 17/15 A2998 RMK A01 T01670150  RH  090%=      5-min Rain = 0
KCL2 231052Z 16007KT 17/15 A2998 RMK A01 T01670150  RH  090%=      5-min Rain = 0
KCL2 231053Z 15009KT 17/15 A2998 RMK A01 T01670151  RH  090%=      5-min Rain = 0
KCL2 231054Z 16007KT 17/15 A2998 RMK A01 T01670150  RH  090%=      5-min Rain = 0
KCL2 231055Z 16006KT 17/15 A2998 RMK A01 T01670150  RH  090%=      5-min Rain = 0
KCL2 231056Z 16008KT 17/15 A2998 RMK A01 T01670150  RH  090%=      5-min Rain = 0
KCL2 231057Z 17008KT 17/15 A2998 RMK A01 T01670150  RH  090%=      5-min Rain = 0
KCL2 231058Z 16007KT 17/15 A2998 RMK A01 T01670150  RH  090%=      5-min Rain = 0
KCL2 231059Z 16008KT 17/15 A2998 RMK A01 T01670150  RH  090%=      5-min Rain = 0
KCL2 231100Z 16008KT 17/15 A2998 RMK A01 T01670151  RH  090%=      5-min Rain = 0
KCL2 231101Z 16007KT 17/15 A2998 RMK A01 T01670150  RH  090%=      5-min Rain = 0
KCL2 231102Z 16008KT 17/15 A2998 RMK A01 T01670150  RH  090%=      5-min Rain = 0
KCL2 231103Z 16008KT 17/15 A2998 RMK A01 T01670150  RH  090%=      5-min Rain = 0
KCL2 231104Z 16009KT 17/15 A2998 RMK A01 T01670151  RH  090%=      5-min Rain = 0
KCL2 231105Z 16008KT 17/15 A2998 RMK A01 T01670151  RH  090%=      5-min Rain = 0
KCL2 231106Z 15008KT 17/15 A2998 RMK A01 T01670151  RH  090%=      5-min Rain = 0
KCL2 231107Z 15007KT 17/15 A2998 RMK A01 T01670151  RH  090%=      5-min Rain = 0
KCL2 231108Z 16008KT 17/15 A2998 RMK A01 T01670150  RH  090%=      5-min Rain = 0
KCL2 231109Z 16007KT 17/15 A2998 RMK A01 T01670151  RH  090%=      5-min Rain = 0
KCL2 231110Z 16009KT 17/15 A2998 RMK A01 T01670151  RH  090%=      5-min Rain = 0
KCL2 231111Z 16007KT 17/15 A2998 RMK A01 T01670151  RH  090%=      5-min Rain = 0
KCL2 231112Z 16007KT 17/15 A2998 RMK A01 T01670151  RH  090%=      5-min Rain = 0
KCL2 231113Z 16007KT 17/15 A2998 RMK A01 T01670151  RH  090%=      5-min Rain = 0
KCL2 231114Z 16007KT 17/15 A2998 RMK A01 T01670151  RH  090%=      5-min Rain = 0
KCL2 231115Z 16009KT 17/15 A2998 RMK A01 T01670151  RH  090%=      5-min Rain = 0
KCL2 231116Z 16009KT 17/15 A2998 RMK A01 T01670151  RH  091%=      5-min Rain = 0
KCL2 231117Z 16008KT 17/15 A2998 RMK A01 T01670151  RH  090%=      5-min Rain = 0
KCL2 231118Z 16008KT 17/15 A2998 RMK A01 T01670151  RH  090%=      5-min Rain = 0
KCL2 231119Z 16009KT 17/15 A2998 RMK A01 T01670151  RH  090%=      5-min Rain = 0
KCL2 231120Z 16009KT 17/15 A2998 RMK A01 T01670151  RH  091%=      5-min Rain = 0
KCL2 231121Z 16009KT 17/15 A2998 RMK A01 T01670151  RH  091%=      5-min Rain = 0
KCL2 231122Z 16009KT 17/15 A2998 RMK A01 T01670151  RH  091%=      5-min Rain = 0
KCL2 231123Z 16009KT 17/15 A2998 RMK A01 T01670151  RH  091%=      5-min Rain = 0
KCL2 231124Z 16010KT 17/15 A2998 RMK A01 T01670151  RH  091%=      5-min Rain = 0
KCL2 231125Z 16008KT 17/15 A2998 RMK A01 T01670151  RH  091%=      5-min Rain = 0
KCL2 231126Z 16010KT 17/15 A2998 RMK A01 T01670151  RH  091%=      5-min Rain = 0
KCL2 231127Z 16010KT 17/15 A2998 RMK A01 T01670151  RH  090%=      5-min Rain = 0
KCL2 231128Z 16008KT 17/15 A2998 RMK A01 T01670151  RH  090%=      5-min Rain = 0
KCL2 231129Z 16009KT 17/15 A2998 RMK A01 T01670151  RH  090%=      5-min Rain = 0
KCL2 231130Z 16009KT 17/15 A2998 RMK A01 T01670151  RH  091%=      5-min Rain = 0
KCL2 231131Z 16009KT 17/15 A2998 RMK A01 T01670151  RH  091%=      5-min Rain = 0
KCL2 231132Z 16010KT 17/15 A2998 RMK A01 T01670151  RH  091%=      5-min Rain = 0
KCL2 231133Z 16009KT 17/15 A2998 RMK A01 T01670152  RH  091%=      5-min Rain = 0
KCL2 231134Z 16009KT 17/15 A2998 RMK A01 T01670151  RH  091%=      5-min Rain = 0
KCL2 231135Z 16009KT 17/15 A2998 RMK A01 T01660151  RH  091%=      5-min Rain = 0
KCL2 231136Z 16010KT 17/15 A2998 RMK A01 T01670151  RH  091%=      5-min Rain = 0
KCL2 231137Z 16010KT 17/15 A2998 RMK A01 T01670151  RH  091%=      5-min Rain = 0
KCL2 231138Z 16010KT 17/15 A2998 RMK A01 T01670151  RH  091%=      5-min Rain = 0
KCL2 231139Z 16010KT 17/15 A2998 RMK A01 T01670151  RH  091%=      5-min Rain = 0
KCL2 231140Z 16009KT 17/15 A2998 RMK A01 T01670152  RH  091%=      5-min Rain = 0
KCL2 231141Z 16010KT 17/15 A2998 RMK A01 T01670152  RH  091%=      5-min Rain = 0
KCL2 231142Z 15008KT 17/15 A2998 RMK A01 T01670152  RH  091%=      5-min Rain = 0
KCL2 231143Z 16008KT 17/15 A2998 RMK A01 T01670152  RH  091%=      5-min Rain = 0
KCL2 231144Z 16010KT 17/15 A2998 RMK A01 T01670152  RH  091%=      5-min Rain = 0
KCL2 231145Z 16010KT 17/15 A2998 RMK A01 T01670152  RH  091%=      5-min Rain = 0
KCL2 231146Z 16011KT 17/15 A2998 RMK A01 T01670152  RH  091%=      5-min Rain = 0
KCL2 231147Z 16009KT 17/15 A2998 RMK A01 T01670152  RH  091%=      5-min Rain = 0
KCL2 231148Z 16009KT 17/15 A2998 RMK A01 T01670152  RH  091%=      5-min Rain = 0
KCL2 231149Z 16011KT 17/15 A2998 RMK A01 T01670152  RH  091%=      5-min Rain = 0
KCL2 231150Z 16009KT 17/15 A2998 RMK A01 T01670152  RH  091%=      5-min Rain = 0
KCL2 231151Z 16011KT 17/15 A2998 RMK A01 T01670151  RH  091%=      5-min Rain = 0
KCL2 231152Z 16011KT 17/15 A2998 RMK A01 T01670152  RH  091%=      5-min Rain = 0
KCL2 231153Z 16010KT 17/15 A2998 RMK A01 T01670152  RH  091%=      5-min Rain = 0
KCL2 231154Z 16009KT 17/15 A2998 RMK A01 T01670152  RH  091%=      5-min Rain = 0
KCL2 231155Z 16008KT 17/15 A2998 RMK A01 T01670152  RH  091%=      5-min Rain = 0
KCL2 231156Z 16008KT 17/15 A2998 RMK A01 T01670152  RH  091%=      5-min Rain = 0
KCL2 231157Z 16009KT 17/15 A2998 RMK A01 T01670152  RH  091%=      5-min Rain = 0
KCL2 231158Z 16009KT 17/15 A2998 RMK A01 T01670152  RH  091%=      5-min Rain = 0
KCL2 231159Z 16007KT 17/15 A2998 RMK A01 T01670152  RH  091%=      5-min Rain = 0
KCL2 231200Z 16008KT 17/15 A2998 RMK A01 T01670152  RH  091%=      5-min Rain = 0
KCL2 231201Z 16008KT 17/15 A2998 RMK A01 T01670152  RH  091%=      5-min Rain = 0
KCL2 231202Z 16008KT 17/15 A2998 RMK A01 T01670152  RH  091%=      5-min Rain = 0
KCL2 231203Z 17008KT 17/15 A2998 RMK A01 T01670152  RH  091%=      5-min Rain = 0
KCL2 231204Z 16008KT 17/15 A2998 RMK A01 T01670152  RH  091%=      5-min Rain = 0
KCL2 231205Z 16008KT 17/15 A2998 RMK A01 T01660152  RH  091%=      5-min Rain = 0
KCL2 231206Z 16007KT 17/15 A2999 RMK A01 T01660152  RH  091%=      5-min Rain = 0
KCL2 231207Z 16007KT 17/15 A2998 RMK A01 T01660152  RH  091%=      5-min Rain = 0
KCL2 231208Z 16007KT 17/15 A2998 RMK A01 T01660152  RH  091%=      5-min Rain = 0
KCL2 231209Z 16006KT 17/15 A2999 RMK A01 T01660152  RH  091%=      5-min Rain = 0
KCL2 231210Z 16008KT 17/15 A2999 RMK A01 T01660153  RH  092%=      5-min Rain = 0
KCL2 231211Z 16007KT 17/15 A2999 RMK A01 T01660153  RH  092%=      5-min Rain = 0
KCL2 231212Z 16008KT 17/15 A2999 RMK A01 T01660153  RH  092%=      5-min Rain = 0
KCL2 231213Z 16009KT 17/15 A2999 RMK A01 T01660153  RH  092%=      5-min Rain = 0
KCL2 231214Z 16009KT 17/15 A2999 RMK A01 T01660153  RH  092%=      5-min Rain = 0
KCL2 231215Z 15008KT 17/15 A2999 RMK A01 T01660152  RH  092%=      5-min Rain = 0
KCL2 231216Z 16008KT 17/15 A2999 RMK A01 T01660152  RH  092%=      5-min Rain = 0
KCL2 231217Z 16008KT 17/15 A2999 RMK A01 T01660152  RH  092%=      5-min Rain = 0
KCL2 231218Z 16008KT 17/15 A2999 RMK A01 T01660152  RH  092%=      5-min Rain = 0
KCL2 231219Z 16007KT 17/15 A2999 RMK A01 T01660152  RH  092%=      5-min Rain = 0
KCL2 231220Z 15007KT 17/15 A2999 RMK A01 T01660152  RH  092%=      5-min Rain = 0
KCL2 231221Z 15007KT 17/15 A2999 RMK A01 T01660153  RH  092%=      5-min Rain = 0
KCL2 231222Z 15008KT 17/15 A2999 RMK A01 T01660152  RH  092%=      5-min Rain = 0
KCL2 231223Z 16008KT 17/15 A2999 RMK A01 T01660153  RH  092%=      5-min Rain = 0
KCL2 231224Z 15008KT 17/15 A2999 RMK A01 T01670153  RH  092%=      5-min Rain = 0
KCL2 231225Z 16008KT 17/15 A2999 RMK A01 T01670153  RH  092%=      5-min Rain = 0
KCL2 231226Z 15007KT 17/15 A2999 RMK A01 T01670153  RH  091%=      5-min Rain = 0
KCL2 231227Z 16007KT 17/15 A2999 RMK A01 T01660153  RH  091%=      5-min Rain = 0
KCL2 231228Z 15008KT 17/15 A2999 RMK A01 T01670153  RH  092%=      5-min Rain = 0
KCL2 231229Z 15006KT 17/15 A2999 RMK A01 T01670153  RH  092%=      5-min Rain = 0
KCL2 231230Z 16007KT 17/15 A2999 RMK A01 T01670153  RH  092%=      5-min Rain = 0
KCL2 231231Z 16008KT 17/15 A2999 RMK A01 T01670153  RH  092%=      5-min Rain = 0
KCL2 231232Z 15008KT 17/15 A2999 RMK A01 T01670153  RH  092%=      5-min Rain = 0
KCL2 231233Z 15008KT 17/15 A2999 RMK A01 T01670153  RH  092%=      5-min Rain = 0
KCL2 231234Z 16009KT 17/15 A2999 RMK A01 T01670153  RH  092%=      5-min Rain = 0
KCL2 231235Z 16009KT 17/15 A2999 RMK A01 T01670153  RH  091%=      5-min Rain = 0
KCL2 231236Z 16008KT 17/15 A2999 RMK A01 T01670153  RH  091%=      5-min Rain = 0
KCL2 231237Z 16006KT 17/15 A2999 RMK A01 T01670153  RH  091%=      5-min Rain = 0
KCL2 231238Z 16006KT 17/15 A2999 RMK A01 T01670153  RH  092%=      5-min Rain = 0
KCL2 231239Z 16009KT 17/15 A2999 RMK A01 T01670154  RH  092%=      5-min Rain = 0
KCL2 231240Z 16007KT 17/15 A2999 RMK A01 T01670153  RH  092%=      5-min Rain = 0
KCL2 231241Z 16006KT 17/15 A2999 RMK A01 T01670154  RH  092%=      5-min Rain = 0
KCL2 231242Z 16008KT 17/15 A2999 RMK A01 T01670154  RH  092%=      5-min Rain = 0
KCL2 231243Z 16008KT 17/15 A2999 RMK A01 T01670153  RH  092%=      5-min Rain = 0
KCL2 231244Z 16007KT 17/15 A2999 RMK A01 T01670154  RH  092%=      5-min Rain = 0
KCL2 231245Z 16006KT 17/15 A2999 RMK A01 T01670154  RH  092%=      5-min Rain = 0
KCL2 231246Z 16007KT 17/15 A2999 RMK A01 T01670154  RH  092%=      5-min Rain = 0
KCL2 231247Z 16006KT 17/15 A2999 RMK A01 T01670154  RH  092%=      5-min Rain = 0
KCL2 231248Z 16009KT 17/15 A2999 RMK A01 T01670154  RH  092%=      5-min Rain = 0
KCL2 231249Z 16008KT 17/15 A2999 RMK A01 T01680154  RH  092%=      5-min Rain = 0
KCL2 231250Z 16008KT 17/15 A2999 RMK A01 T01680154  RH  091%=      5-min Rain = 0
KCL2 231251Z 16006KT 17/15 A2999 RMK A01 T01680154  RH  091%=      5-min Rain = 0
KCL2 231252Z 16007KT 17/15 A2999 RMK A01 T01680154  RH  091%=      5-min Rain = 0
KCL2 231253Z 16008KT 17/15 A2999 RMK A01 T01680154  RH  091%=      5-min Rain = 0
KCL2 231254Z 16008KT 17/15 A2999 RMK A01 T01680154  RH  091%=      5-min Rain = 0
KCL2 231255Z 16007KT 17/15 A2999 RMK A01 T01680154  RH  091%=      5-min Rain = 0
KCL2 231256Z 17007KT 17/15 A2999 RMK A01 T01680154  RH  091%=      5-min Rain = 0
KCL2 231257Z 16007KT 17/15 A2999 RMK A01 T01680154  RH  091%=      5-min Rain = 0
KCL2 231258Z 16006KT 17/15 A30 RMK A01 T01680154  RH  091%=      5-min Rain = 0
KCL2 231259Z 16008KT 17/16 A2999 RMK A01 T01680155  RH  091%=      5-min Rain = 0
KCL2 231300Z 16006KT 17/15 A30 RMK A01 T01680154  RH  091%=      5-min Rain = 0
KCL2 231301Z 17005KT 17/16 A30 RMK A01 T01690155  RH  091%=      5-min Rain = 0
KCL2 231302Z 16006KT 17/16 A30 RMK A01 T01690155  RH  091%=      5-min Rain = 0
KCL2 231303Z 17006KT 17/16 A30 RMK A01 T01690155  RH  091%=      5-min Rain = 0
KCL2 231304Z 17007KT 17/16 A30 RMK A01 T01700155  RH  091%=      5-min Rain = 0
KCL2 231305Z 17007KT 17/16 A30 RMK A01 T01700155  RH  091%=      5-min Rain = 0
KCL2 231306Z 17008KT 17/16 A30 RMK A01 T01710155  RH  091%=      5-min Rain = 0
KCL2 231307Z 17008KT 17/16 A30 RMK A01 T01710156  RH  090%=      5-min Rain = 0
KCL2 231308Z 17009KT 17/16 A30 RMK A01 T01710155  RH  090%=      5-min Rain = 0
KCL2 231309Z 17008KT 17/16 A30 RMK A01 T01720156  RH  090%=      5-min Rain = 0
KCL2 231310Z 17007KT 17/16 A30 RMK A01 T01720156  RH  090%=      5-min Rain = 0
KCL2 231311Z 17007KT 17/16 A30 RMK A01 T01720156  RH  090%=      5-min Rain = 0
KCL2 231312Z 17008KT 17/16 A30 RMK A01 T01720156  RH  090%=      5-min Rain = 0
KCL2 231313Z 17008KT 17/16 A30 RMK A01 T01720156  RH  090%=      5-min Rain = 0
KCL2 231314Z 17007KT 17/16 A30 RMK A01 T01720156  RH  090%=      5-min Rain = 0
KCL2 231315Z 18008KT 17/16 A30 RMK A01 T01730156  RH  090%=      5-min Rain = 0
KCL2 231316Z 17008KT 17/16 A30 RMK A01 T01730156  RH  090%=      5-min Rain = 0
KCL2 231317Z 17008KT 17/16 A30 RMK A01 T01720156  RH  090%=      5-min Rain = 0
KCL2 231318Z 17006KT 17/16 A30 RMK A01 T01730156  RH  090%=      5-min Rain = 0
KCL2 231319Z 16006KT 17/16 A30 RMK A01 T01730156  RH  090%=      5-min Rain = 0
KCL2 231320Z 18007KT 17/16 A30 RMK A01 T01730157  RH  090%=      5-min Rain = 0
KCL2 231321Z 18007KT 17/16 A30 RMK A01 T01740156  RH  090%=      5-min Rain = 0
KCL2 231322Z 17008KT 17/16 A30 RMK A01 T01740157  RH  090%=      5-min Rain = 0
KCL2 231323Z 16006KT 18/16 A30 RMK A01 T01750157  RH  089%=      5-min Rain = 0
KCL2 231324Z 17006KT 18/16 A30 RMK A01 T01750157  RH  089%=      5-min Rain = 0
KCL2 231325Z 16006KT 18/16 A30 RMK A01 T01750157  RH  089%=      5-min Rain = 0
KCL2 231326Z 17007KT 18/16 A30 RMK A01 T01760157  RH  089%=      5-min Rain = 0
KCL2 231327Z 17008KT 18/16 A30 RMK A01 T01770158  RH  089%=      5-min Rain = 0
KCL2 231328Z 17006KT 18/16 A30 RMK A01 T01770158  RH  088%=      5-min Rain = 0
KCL2 231329Z 17008KT 18/16 A30 RMK A01 T01770157  RH  088%=      5-min Rain = 0
KCL2 231330Z 16009KT 18/16 A3001 RMK A01 T01770157  RH  088%=      5-min Rain = 0
KCL2 231331Z 17006KT 18/16 A3001 RMK A01 T01780157  RH  088%=      5-min Rain = 0
KCL2 231332Z 17006KT 18/16 A3001 RMK A01 T01780158  RH  088%=      5-min Rain = 0
KCL2 231333Z 16008KT 18/16 A3001 RMK A01 T01780158  RH  088%=      5-min Rain = 0
KCL2 231334Z 17007KT 18/16 A3001 RMK A01 T01780158  RH  088%=      5-min Rain = 0
KCL2 231335Z 16009KT 18/16 A3001 RMK A01 T01790158  RH  088%=      5-min Rain = 0
KCL2 231336Z 17008KT 18/16 A3001 RMK A01 T01780157  RH  087%=      5-min Rain = 0
KCL2 231337Z 17012KT 18/16 A3001 RMK A01 T01790157  RH  087%=      5-min Rain = 0
KCL2 231338Z 17009KT 18/16 A3001 RMK A01 T01790157  RH  087%=      5-min Rain = 0
KCL2 231339Z 17008KT 18/16 A3001 RMK A01 T01780157  RH  088%=      5-min Rain = 0
KCL2 231340Z 17008KT 18/16 A3001 RMK A01 T01780158  RH  088%=      5-min Rain = 0
KCL2 231341Z 17008KT 18/16 A3001 RMK A01 T01780157  RH  088%=      5-min Rain = 0
KCL2 231342Z 17008KT 18/16 A3001 RMK A01 T01780158  RH  088%=      5-min Rain = 0
KCL2 231343Z 17011KT 18/16 A3001 RMK A01 T01780157  RH  088%=      5-min Rain = 0
KCL2 231344Z 18010KT 18/16 A3001 RMK A01 T01790157  RH  087%=      5-min Rain = 0
KCL2 231345Z 17009KT 18/16 A3001 RMK A01 T01790158  RH  087%=      5-min Rain = 0
KCL2 231346Z 18008KT 18/16 A3001 RMK A01 T01780157  RH  088%=      5-min Rain = 0
KCL2 231347Z 17007KT 18/16 A3001 RMK A01 T01790158  RH  088%=      5-min Rain = 0
KCL2 231348Z 18007KT 18/16 A3001 RMK A01 T01790158  RH  088%=      5-min Rain = 0
KCL2 231349Z 18006KT 18/16 A3001 RMK A01 T01790158  RH  088%=      5-min Rain = 0
KCL2 231350Z 17005KT 18/16 A3001 RMK A01 T01790159  RH  088%=      5-min Rain = 0
KCL2 231351Z 17004KT 18/16 A3001 RMK A01 T01800160  RH  088%=      5-min Rain = 0
KCL2 231352Z 17008KT 18/16 A3001 RMK A01 T01800159  RH  087%=      5-min Rain = 0
KCL2 231353Z 17007KT 18/16 A3001 RMK A01 T01800158  RH  087%=      5-min Rain = 0
KCL2 231354Z 18005KT 18/16 A3001 RMK A01 T01800158  RH  087%=      5-min Rain = 0
KCL2 231355Z 17006KT 18/16 A3001 RMK A01 T01800160  RH  088%=      5-min Rain = 0
KCL2 231356Z 17007KT 18/16 A3001 RMK A01 T01800158  RH  087%=      5-min Rain = 0
KCL2 231357Z 18007KT 18/16 A3001 RMK A01 T01800158  RH  087%=      5-min Rain = 0
KCL2 231358Z 18008KT 18/16 A3001 RMK A01 T01800158  RH  087%=      5-min Rain = 0
KCL2 231359Z 18006KT 18/16 A3001 RMK A01 T01790158  RH  087%=      5-min Rain = 0
KCL2 231400Z 18006KT 18/16 A3001 RMK A01 T01800160  RH  088%=      5-min Rain = 0
KCL2 231401Z 18006KT 18/16 A3001 RMK A01 T01800159  RH  087%=      5-min Rain = 0
KCL2 231402Z 17007KT 18/16 A3001 RMK A01 T01810160  RH  087%=      5-min Rain = 0
KCL2 231403Z 17007KT 18/16 A3001 RMK A01 T01810159  RH  087%=      5-min Rain = 0
KCL2 231404Z 17009KT 18/16 A3001 RMK A01 T01810158  RH  086%=      5-min Rain = 0
KCL2 231405Z 18008KT 18/16 A3001 RMK A01 T01810159  RH  087%=      5-min Rain = 0
KCL2 231406Z 17007KT 18/16 A3001 RMK A01 T01810159  RH  087%=      5-min Rain = 0
KCL2 231407Z 18008KT 18/16 A3001 RMK A01 T01820159  RH  087%=      5-min Rain = 0
KCL2 231408Z 17008KT 18/16 A3001 RMK A01 T01820160  RH  087%=      5-min Rain = 0
KCL2 231409Z 16007KT 18/16 A3001 RMK A01 T01820159  RH  086%=      5-min Rain = 0
KCL2 231410Z 17008KT 18/16 A3001 RMK A01 T01820159  RH  086%=      5-min Rain = 0
KCL2 231411Z 17007KT 18/16 A3001 RMK A01 T01820160  RH  087%=      5-min Rain = 0
KCL2 231412Z 17006KT 18/16 A3001 RMK A01 T01830160  RH  086%=      5-min Rain = 0
KCL2 231413Z 16007KT 18/16 A3001 RMK A01 T01830160  RH  086%=      5-min Rain = 0
KCL2 231414Z 17007KT 18/16 A3001 RMK A01 T01830160  RH  086%=      5-min Rain = 0
KCL2 231415Z 17006KT 18/16 A3001 RMK A01 T01830160  RH  086%=      5-min Rain = 0
KCL2 231416Z 16007KT 18/16 A3001 RMK A01 T01830160  RH  086%=      5-min Rain = 0
KCL2 231417Z 16010KT 18/16 A3001 RMK A01 T01830160  RH  086%=      5-min Rain = 0
KCL2 231418Z 17010KT 18/16 A3001 RMK A01 T01840159  RH  086%=      5-min Rain = 0
KCL2 231419Z 16010KT 18/16 A3001 RMK A01 T01840160  RH  086%=      5-min Rain = 0
KCL2 231420Z 17010KT 18/16 A3001 RMK A01 T01840159  RH  086%=      5-min Rain = 0
KCL2 231421Z 18010KT 19/16 A3001 RMK A01 T01850160  RH  085%=      5-min Rain = 0
KCL2 231422Z 18010KT 19/16 A3001 RMK A01 T01850160  RH  085%=      5-min Rain = 0
KCL2 231423Z 18011KT 19/16 A3001 RMK A01 T01850160  RH  085%=      5-min Rain = 0
KCL2 231424Z 18010KT 19/16 A3001 RMK A01 T01850160  RH  085%=      5-min Rain = 0
KCL2 231425Z 18011KT 19/16 A3001 RMK A01 T01860160  RH  085%=      5-min Rain = 0
KCL2 231426Z 19010KT 19/16 A3001 RMK A01 T01860161  RH  085%=      5-min Rain = 0
KCL2 231427Z 18009KT 19/16 A3001 RMK A01 T01870161  RH  085%=      5-min Rain = 0
KCL2 231428Z 17008KT 19/16 A3001 RMK A01 T01880161  RH  085%=      5-min Rain = 0
KCL2 231429Z 17010KT 19/16 A3001 RMK A01 T01890161  RH  084%=      5-min Rain = 0
KCL2 231430Z 16008KT 19/16 A3001 RMK A01 T01890161  RH  084%=      5-min Rain = 0
KCL2 231431Z 17009KT 19/16 A3001 RMK A01 T01910163  RH  084%=      5-min Rain = 0
KCL2 231432Z 16009KT 19/16 A3001 RMK A01 T01930163  RH  083%=      5-min Rain = 0
KCL2 231433Z 17009KT 19/16 A3001 RMK A01 T01930163  RH  082%=      5-min Rain = 0
KCL2 231434Z 18010KT 19/16 A3001 RMK A01 T01940162  RH  082%=      5-min Rain = 0
KCL2 231435Z 18010KT 19/16 A3001 RMK A01 T01930161  RH  082%=      5-min Rain = 0
KCL2 231436Z 18010KT 19/16 A3001 RMK A01 T01920161  RH  082%=      5-min Rain = 0
KCL2 231437Z 18007KT 19/16 A3001 RMK A01 T01910161  RH  083%=      5-min Rain = 0
KCL2 231438Z 18010KT 19/16 A3001 RMK A01 T01910161  RH  083%=      5-min Rain = 0
KCL2 231439Z 18010KT 19/16 A3001 RMK A01 T01910161  RH  083%=      5-min Rain = 0
KCL2 231440Z 18009KT 19/16 A3001 RMK A01 T01900161  RH  083%=      5-min Rain = 0
KCL2 231441Z 17008KT 19/16 A3001 RMK A01 T01910161  RH  083%=      5-min Rain = 0
KCL2 231442Z 17009KT 19/16 A3001 RMK A01 T01920162  RH  083%=      5-min Rain = 0
KCL2 231443Z 17008KT 19/16 A3001 RMK A01 T01930161  RH  082%=      5-min Rain = 0
KCL2 231444Z 17008KT 19/16 A3001 RMK A01 T01940162  RH  082%=      5-min Rain = 0
KCL2 231445Z 17008KT 19/16 A3001 RMK A01 T01940162  RH  081%=      5-min Rain = 0
KCL2 231446Z 16008KT 19/16 A3001 RMK A01 T01940161  RH  081%=      5-min Rain = 0
KCL2 231447Z 17011KT 19/16 A3001 RMK A01 T01940161  RH  081%=      5-min Rain = 0
KCL2 231448Z 17009KT 20/16 A3001 RMK A01 T01950161  RH  080%=      5-min Rain = 0
KCL2 231449Z 18009KT 20/16 A3001 RMK A01 T01960163  RH  081%=      5-min Rain = 0
KCL2 231450Z 18009KT 20/16 A3001 RMK A01 T01980164  RH  081%=      5-min Rain = 0
KCL2 231451Z 18010KT 20/16 A3001 RMK A01 T01990162  RH  080%=      5-min Rain = 0
KCL2 231452Z 18009KT 20/16 A3001 RMK A01 T01980162  RH  080%=      5-min Rain = 0
KCL2 231453Z 17009KT 20/16 A3002 RMK A01 T01970163  RH  081%=      5-min Rain = 0
KCL2 231454Z 16010KT 20/16 A3002 RMK A01 T01970162  RH  080%=      5-min Rain = 0
KCL2 231455Z 16009KT 20/16 A3002 RMK A01 T01960162  RH  080%=      5-min Rain = 0
KCL2 231456Z 16010KT 20/16 A3001 RMK A01 T01960162  RH  081%=      5-min Rain = 0
KCL2 231457Z 17009KT 20/16 A3002 RMK A01 T01950162  RH  081%=      5-min Rain = 0
KCL2 231458Z 16008KT 20/16 A3002 RMK A01 T01950163  RH  081%=      5-min Rain = 0
KCL2 231459Z 16009KT 20/16 A3002 RMK A01 T01960163  RH  081%=      5-min Rain = 0
KCL2 231500Z 16009KT 20/16 A3002 RMK A01 T01960163  RH  081%=      5-min Rain = 0
KCL2 231501Z 17007KT 20/16 A3002 RMK A01 T01960162  RH  081%=      5-min Rain = 0
KCL2 231502Z 17009KT 20/16 A3002 RMK A01 T01960164  RH  081%=      5-min Rain = 0
KCL2 231503Z 18010KT 20/16 A3002 RMK A01 T01960163  RH  081%=      5-min Rain = 0
KCL2 231504Z 17009KT 20/16 A3002 RMK A01 T01950162  RH  081%=      5-min Rain = 0
KCL2 231505Z 18007KT 19/16 A3002 RMK A01 T01940162  RH  081%=      5-min Rain = 0
KCL2 231506Z 18006KT 19/16 A3002 RMK A01 T01940163  RH  082%=      5-min Rain = 0
KCL2 231507Z 18007KT 19/16 A3002 RMK A01 T01940163  RH  082%=      5-min Rain = 0
KCL2 231508Z 18009KT 19/16 A3002 RMK A01 T01940162  RH  082%=      5-min Rain = 0
KCL2 231509Z 18009KT 19/16 A3002 RMK A01 T01940161  RH  081%=      5-min Rain = 0
KCL2 231510Z 19008KT 19/16 A3002 RMK A01 T01930162  RH  082%=      5-min Rain = 0
KCL2 231511Z 19007KT 19/16 A3002 RMK A01 T01930162  RH  082%=      5-min Rain = 0
KCL2 231512Z 19005KT 19/16 A3002 RMK A01 T01930162  RH  082%=      5-min Rain = 0
KCL2 231513Z 18004KT 19/16 A3002 RMK A01 T01930162  RH  082%=      5-min Rain = 0
KCL2 231514Z 20004KT 19/16 A3002 RMK A01 T01930162  RH  082%=      5-min Rain = 0
KCL2 231515Z 18005KT 19/16 A3003 RMK A01 T01940164  RH  083%=      5-min Rain = 0
KCL2 231516Z 16003KT 20/16 A3003 RMK A01 T01950163  RH  082%=      5-min Rain = 0
KCL2 231517Z 15004KT 20/16 A3003 RMK A01 T01960162  RH  081%=      5-min Rain = 0
KCL2 231518Z 17004KT 20/16 A3003 RMK A01 T01960162  RH  081%=      5-min Rain = 0
KCL2 231519Z 22002KT 20/17 A3003 RMK A01 T01970165  RH  082%=      5-min Rain = 0
KCL2 231520Z 21005KT 20/16 A3003 RMK A01 T01970164  RH  081%=      5-min Rain = 0
KCL2 231521Z 19003KT 20/16 A3003 RMK A01 T01980164  RH  081%=      5-min Rain = 0
KCL2 231522Z 18005KT 20/16 A3003 RMK A01 T01980164  RH  080%=      5-min Rain = 0
KCL2 231523Z 19006KT 20/16 A3003 RMK A01 T01980162  RH  079%=      5-min Rain = 0
KCL2 231524Z 20005KT 20/16 A3003 RMK A01 T01980162  RH  080%=      5-min Rain = 0
KCL2 231525Z 20004KT 20/16 A3003 RMK A01 T01980163  RH  080%=      5-min Rain = 0
KCL2 231526Z 19004KT 20/16 A3004 RMK A01 T01980163  RH  081%=      5-min Rain = 0
KCL2 231527Z 19005KT 20/16 A3004 RMK A01 T01980163  RH  080%=      5-min Rain = 0
KCL2 231528Z 21005KT 20/16 A3004 RMK A01 T01990163  RH  080%=      5-min Rain = 0
KCL2 231529Z 22004KT 20/16 A3004 RMK A01 T01990162  RH  079%=      5-min Rain = 0
KCL2 231530Z 22004KT 20/16 A3004 RMK A01 T01990162  RH  079%=      5-min Rain = 0
KCL2 231531Z 21003KT 20/16 A3004 RMK A01 T01990163  RH  080%=      5-min Rain = 0
KCL2 231532Z 19002KT 20/16 A3004 RMK A01 T02000163  RH  079%=      5-min Rain = 0
KCL2 231533Z 20002KT 20/16 A3004 RMK A01 T02000162  RH  079%=      5-min Rain = 0
KCL2 231534Z 20001KT 20/16 A3004 RMK A01 T02000162  RH  079%=      5-min Rain = 0
KCL2 231535Z 18003KT 20/16 A3004 RMK A01 T02000163  RH  079%=      5-min Rain = 0
KCL2 231536Z 23003KT 20/17 A3004 RMK A01 T02010165  RH  080%=      5-min Rain = 0
KCL2 231537Z 25003KT 20/16 A3004 RMK A01 T02020164  RH  079%=      5-min Rain = 0
KCL2 231538Z 24002KT 20/16 A3004 RMK A01 T02020162  RH  078%=      5-min Rain = 0
KCL2 231539Z 23002KT 20/16 A3004 RMK A01 T02020163  RH  079%=      5-min Rain = 0
KCL2 231540Z 22003KT 20/17 A3004 RMK A01 T02020166  RH  080%=      5-min Rain = 0
KCL2 231541Z 19003KT 20/17 A3004 RMK A01 T02030165  RH  079%=      5-min Rain = 0
KCL2 231542Z 22004KT 20/17 A3004 RMK A01 T02040165  RH  078%=      5-min Rain = 0
KCL2 231543Z 25004KT 20/17 A3004 RMK A01 T02040165  RH  079%=      5-min Rain = 0
KCL2 231544Z 24003KT 20/16 A3004 RMK A01 T02040164  RH  078%=      5-min Rain = 0
KCL2 231545Z 25003KT 20/16 A3004 RMK A01 T02030163  RH  077%=      5-min Rain = 0
KCL2 231546Z 22003KT 20/17 A3004 RMK A01 T02030165  RH  079%=      5-min Rain = 0
KCL2 231547Z 21003KT 21/17 A3004 RMK A01 T02050169  RH  080%=      5-min Rain = 0
KCL2 231548Z 22003KT 21/17 A3004 RMK A01 T02070168  RH  078%=      5-min Rain = 0
KCL2 231549Z 23005KT 21/17 A3004 RMK A01 T02080167  RH  077%=      5-min Rain = 0
KCL2 231550Z 21004KT 21/17 A3004 RMK A01 T02090168  RH  078%=      5-min Rain = 0
KCL2 231551Z 21004KT 21/17 A3004 RMK A01 T02090167  RH  076%=      5-min Rain = 0
KCL2 231552Z 21002KT 21/17 A3004 RMK A01 T02100165  RH  076%=      5-min Rain = 0
KCL2 231553Z 22002KT 21/16 A3004 RMK A01 T02090164  RH  076%=      5-min Rain = 0
KCL2 231554Z 21003KT 21/17 A3004 RMK A01 T02090166  RH  076%=      5-min Rain = 0
KCL2 231555Z 18003KT 21/17 A3004 RMK A01 T02090165  RH  076%=      5-min Rain = 0
KCL2 231556Z 20005KT 21/17 A3004 RMK A01 T02080165  RH  076%=      5-min Rain = 0
KCL2 231557Z 21004KT 21/17 A3004 RMK A01 T02080166  RH  077%=      5-min Rain = 0
KCL2 231558Z 21006KT 21/17 A3004 RMK A01 T02070166  RH  077%=      5-min Rain = 0
KCL2 231559Z 22005KT 21/16 A3004 RMK A01 T02070164  RH  077%=      5-min Rain = 0
KCL2 231600Z 23004KT 21/17 A3004 RMK A01 T02060165  RH  077%=      5-min Rain = 0
KCL2 231601Z 23003KT 21/17 A3004 RMK A01 T02060165  RH  078%=      5-min Rain = 0
KCL2 231602Z 23004KT 21/17 A3004 RMK A01 T02060167  RH  078%=      5-min Rain = 0
KCL2 231603Z 22002KT 21/17 A3004 RMK A01 T02060166  RH  078%=      5-min Rain = 0
KCL2 231604Z 22003KT 21/17 A3004 RMK A01 T02060165  RH  077%=      5-min Rain = 0
KCL2 231605Z 21006KT 21/17 A3004 RMK A01 T02060165  RH  077%=      5-min Rain = 0
KCL2 231606Z 21006KT 21/16 A3004 RMK A01 T02050164  RH  077%=      5-min Rain = 0
KCL2 231607Z 20005KT 20/16 A3004 RMK A01 T02040162  RH  077%=      5-min Rain = 0
KCL2 231608Z 21005KT 20/16 A3004 RMK A01 T02030164  RH  078%=      5-min Rain = 0
KCL2 231609Z 22006KT 20/17 A3004 RMK A01 T02030165  RH  079%=      5-min Rain = 0
KCL2 231610Z 22004KT 20/16 A3004 RMK A01 T02030164  RH  078%=      5-min Rain = 0
KCL2 231611Z 22006KT 20/16 A3004 RMK A01 T02030164  RH  078%=      5-min Rain = 0
KCL2 231612Z 22006KT 20/16 A3004 RMK A01 T02030164  RH  078%=      5-min Rain = 0
KCL2 231613Z 22005KT 20/17 A3004 RMK A01 T02030165  RH  079%=      5-min Rain = 0
KCL2 231614Z 23004KT 20/17 A3004 RMK A01 T02030165  RH  079%=      5-min Rain = 0
KCL2 231615Z 23004KT 20/17 A3004 RMK A01 T02040166  RH  079%=      5-min Rain = 0
KCL2 231616Z 23004KT 21/17 A3004 RMK A01 T02050166  RH  078%=      5-min Rain = 0
KCL2 231617Z 24004KT 21/17 A3004 RMK A01 T02050166  RH  078%=      5-min Rain = 0
KCL2 231618Z 24004KT 21/17 A3004 RMK A01 T02060165  RH  077%=      5-min Rain = 0
KCL2 231619Z 21005KT 21/17 A3004 RMK A01 T02060166  RH  078%=      5-min Rain = 0
KCL2 231620Z 19005KT 21/17 A3004 RMK A01 T02060166  RH  078%=      5-min Rain = 0
KCL2 231621Z 19004KT 21/17 A3004 RMK A01 T02060168  RH  078%=      5-min Rain = 0
KCL2 231622Z 19005KT 21/17 A3004 RMK A01 T02070165  RH  077%=      5-min Rain = 0
KCL2 231623Z 19004KT 21/17 A3003 RMK A01 T02070165  RH  077%=      5-min Rain = 0
KCL2 231624Z 19004KT 21/17 A3003 RMK A01 T02060167  RH  078%=      5-min Rain = 0
KCL2 231625Z 19004KT 21/17 A3003 RMK A01 T02060165  RH  077%=      5-min Rain = 0
KCL2 231626Z 18004KT 21/17 A3003 RMK A01 T02070166  RH  077%=      5-min Rain = 0
KCL2 231627Z 20004KT 21/16 A3003 RMK A01 T02060164  RH  077%=      5-min Rain = 0
KCL2 231628Z 20004KT 21/17 A3003 RMK A01 T02060166  RH  077%=      5-min Rain = 0
KCL2 231629Z 21004KT 21/17 A3003 RMK A01 T02060165  RH  077%=      5-min Rain = 0
KCL2 231630Z 21004KT 21/17 A3003 RMK A01 T02060165  RH  078%=      5-min Rain = 0
KCL2 231631Z 21005KT 21/17 A3003 RMK A01 T02060165  RH  077%=      5-min Rain = 0
KCL2 231632Z 20003KT 21/17 A3003 RMK A01 T02060167  RH  078%=      5-min Rain = 0
KCL2 231633Z 19003KT 21/17 A3003 RMK A01 T02060166  RH  078%=      5-min Rain = 0
KCL2 231634Z 18003KT 21/17 A3003 RMK A01 T02070167  RH  078%=      5-min Rain = 0
KCL2 231635Z 18002KT 21/17 A3003 RMK A01 T02070167  RH  078%=      5-min Rain = 0
KCL2 231636Z 17004KT 21/17 A3003 RMK A01 T02080166  RH  077%=      5-min Rain = 0
KCL2 231637Z 17004KT 21/17 A3003 RMK A01 T02080166  RH  077%=      5-min Rain = 0
KCL2 231638Z 18004KT 21/17 A3003 RMK A01 T02070166  RH  077%=      5-min Rain = 0
KCL2 231639Z 18004KT 21/17 A3003 RMK A01 T02070165  RH  077%=      5-min Rain = 0
KCL2 231640Z 19003KT 21/17 A3003 RMK A01 T02060165  RH  077%=      5-min Rain = 0
KCL2 231641Z 19003KT 21/17 A3003 RMK A01 T02050165  RH  078%=      5-min Rain = 0
KCL2 231642Z 19003KT 20/17 A3003 RMK A01 T02040167  RH  079%=      5-min Rain = 0
KCL2 231643Z 17003KT 20/17 A3003 RMK A01 T02040166  RH  079%=      5-min Rain = 0
KCL2 231644Z 18003KT 20/17 A3003 RMK A01 T02030167  RH  079%=      5-min Rain = 0
KCL2 231645Z 18003KT 20/17 A3003 RMK A01 T02040167  RH  080%=      5-min Rain = 0
KCL2 231646Z 16003KT 20/17 A3003 RMK A01 T02040168  RH  080%=      5-min Rain = 0
KCL2 231647Z 17003KT 20/17 A3003 RMK A01 T02030168  RH  080%=      5-min Rain = 0
KCL2 231648Z 15002KT 20/17 A3003 RMK A01 T02030165  RH  078%=      5-min Rain = 0
KCL2 231649Z 15001KT 20/16 A3003 RMK A01 T02030164  RH  078%=      5-min Rain = 0
KCL2 231650Z 17001KT 20/17 A3003 RMK A01 T02040165  RH  078%=      5-min Rain = 0
KCL2 231651Z 15001KT 20/17 A3003 RMK A01 T02040167  RH  079%=      5-min Rain = 0
KCL2 231652Z 15002KT 20/17 A3003 RMK A01 T02040168  RH  080%=      5-min Rain = 0
KCL2 231653Z 18002KT 21/17 A3003 RMK A01 T02050169  RH  080%=      5-min Rain = 0
KCL2 231654Z 17002KT 21/17 A3003 RMK A01 T02060167  RH  078%=      5-min Rain = 0
KCL2 231655Z 14002KT 21/17 A3003 RMK A01 T02060169  RH  079%=      5-min Rain = 0
KCL2 231656Z 17003KT 21/17 A3003 RMK A01 T02070170  RH  079%=      5-min Rain = 0
KCL2 231657Z 17003KT 21/17 A3003 RMK A01 T02080170  RH  079%=      5-min Rain = 0
KCL2 231658Z 17003KT 21/17 A3003 RMK A01 T02090169  RH  078%=      5-min Rain = 0
KCL2 231659Z 15003KT 21/17 A3003 RMK A01 T02090168  RH  077%=      5-min Rain = 0
KCL2 231700Z 15004KT 21/17 A3003 RMK A01 T02090168  RH  077%=      5-min Rain = 0
KCL2 231701Z 15004KT 21/17 A3003 RMK A01 T02090168  RH  077%=      5-min Rain = 0
KCL2 231702Z 14003KT 21/17 A3003 RMK A01 T02090166  RH  076%=      5-min Rain = 0
KCL2 231703Z 14003KT 21/17 A3003 RMK A01 T02100166  RH  076%=      5-min Rain = 0
KCL2 231704Z 15003KT 21/17 A3003 RMK A01 T02100168  RH  077%=      5-min Rain = 0
KCL2 231705Z 15004KT 21/17 A3003 RMK A01 T02100167  RH  076%=      5-min Rain = 0
KCL2 231706Z 14003KT 21/17 A3003 RMK A01 T02100166  RH  076%=      5-min Rain = 0
KCL2 231707Z 16004KT 21/17 A3003 RMK A01 T02100167  RH  076%=      5-min Rain = 0
KCL2 231708Z 13004KT 21/17 A3003 RMK A01 T02110167  RH  076%=      5-min Rain = 0
KCL2 231709Z 12003KT 21/17 A3003 RMK A01 T02110168  RH  076%=      5-min Rain = 0
KCL2 231710Z 13004KT 21/17 A3002 RMK A01 T02110167  RH  076%=      5-min Rain = 0
KCL2 231711Z 12003KT 21/17 A3002 RMK A01 T02110166  RH  075%=      5-min Rain = 0
KCL2 231712Z 15003KT 21/17 A3002 RMK A01 T02110167  RH  076%=      5-min Rain = 0
KCL2 231713Z 16003KT 21/17 A3002 RMK A01 T02110166  RH  076%=      5-min Rain = 0
KCL2 231714Z 16004KT 21/17 A3002 RMK A01 T02110166  RH  076%=      5-min Rain = 0
KCL2 231715Z 18004KT 21/17 A3002 RMK A01 T02110166  RH  075%=      5-min Rain = 0
KCL2 231716Z 17002KT 21/17 A3002 RMK A01 T02120168  RH  076%=      5-min Rain = 0
KCL2 231717Z 19004KT 21/17 A3002 RMK A01 T02120169  RH  076%=      5-min Rain = 0
KCL2 231718Z 21004KT 21/17 A3002 RMK A01 T02120166  RH  075%=      5-min Rain = 0
KCL2 231719Z 20003KT 21/17 A3002 RMK A01 T02110168  RH  076%=      5-min Rain = 0
KCL2 231720Z 19004KT 21/17 A3002 RMK A01 T02100174  RH  080%=      5-min Rain = 0
KCL2 231721Z 19007KT 21/18 A3002 RMK A01 T02100175  RH  080%=      5-min Rain = 0
KCL2 231722Z 17006KT 21/17 A3002 RMK A01 T02080171  RH  079%=      5-min Rain = 0
KCL2 231723Z 17004KT 21/17 A3002 RMK A01 T02070169  RH  079%=      5-min Rain = 0
KCL2 231724Z 18004KT 21/17 A3002 RMK A01 T02060174  RH  082%=      5-min Rain = 0
KCL2 231725Z 18003KT 21/17 A3002 RMK A01 T02060171  RH  080%=      5-min Rain = 0
KCL2 231726Z 18002KT 21/17 A3002 RMK A01 T02050170  RH  080%=      5-min Rain = 0
KCL2 231727Z 18002KT 21/17 A3002 RMK A01 T02050170  RH  080%=      5-min Rain = 0
KCL2 231728Z 19002KT 21/17 A3002 RMK A01 T02050172  RH  082%=      5-min Rain = 0
KCL2 231729Z 20002KT 21/17 A3002 RMK A01 T02050171  RH  081%=      5-min Rain = 0
KCL2 231730Z 22002KT 21/17 A3001 RMK A01 T02060174  RH  082%=      5-min Rain = 0
KCL2 231731Z 20002KT 21/17 A3001 RMK A01 T02070172  RH  080%=      5-min Rain = 0
KCL2 231732Z 22001KT 21/17 A3001 RMK A01 T02070171  RH  080%=      5-min Rain = 0
KCL2 231733Z 19002KT 21/17 A3001 RMK A01 T02070173  RH  081%=      5-min Rain = 0
KCL2 231734Z 19001KT 21/17 A3001 RMK A01 T02080170  RH  079%=      5-min Rain = 0
KCL2 231735Z 20002KT 21/17 A3001 RMK A01 T02090170  RH  078%=      5-min Rain = 0
KCL2 231736Z 21001KT 21/17 A3001 RMK A01 T02090169  RH  078%=      5-min Rain = 0
KCL2 231737Z 21002KT 21/17 A3001 RMK A01 T02100169  RH  077%=      5-min Rain = 0
KCL2 231738Z 23001KT 21/17 A3001 RMK A01 T02110171  RH  078%=      5-min Rain = 0
KCL2 231739Z 20002KT 21/17 A3001 RMK A01 T02120170  RH  077%=      5-min Rain = 0
KCL2 231740Z 21001KT 21/17 A3001 RMK A01 T02120170  RH  077%=      5-min Rain = 0
KCL2 231741Z 23002KT 21/17 A3001 RMK A01 T02120171  RH  077%=      5-min Rain = 0
KCL2 231742Z 22002KT 21/17 A3001 RMK A01 T02130168  RH  076%=      5-min Rain = 0
KCL2 231743Z 22001KT 21/17 A3001 RMK A01 T02130170  RH  077%=      5-min Rain = 0
KCL2 231744Z 27000KT 21/17 A3001 RMK A01 T02140173  RH  078%=      5-min Rain = 0
KCL2 231745Z 20001KT 22/17 A3001 RMK A01 T02150174  RH  077%=      5-min Rain = 0
KCL2 231746Z 20003KT 22/17 A3001 RMK A01 T02170172  RH  076%=      5-min Rain = 0
KCL2 231747Z 21002KT 22/17 A3001 RMK A01 T02170170  RH  074%=      5-min Rain = 0
KCL2 231748Z 21001KT 22/17 A3001 RMK A01 T02180171  RH  075%=      5-min Rain = 0
KCL2 231749Z 20002KT 22/17 A3001 RMK A01 T02180170  RH  074%=      5-min Rain = 0
KCL2 231750Z 15001KT 22/17 A3001 RMK A01 T02190171  RH  074%=      5-min Rain = 0
KCL2 231751Z 13001KT 22/17 A3001 RMK A01 T02180171  RH  075%=      5-min Rain = 0
KCL2 231752Z 14000KT 22/17 A3001 RMK A01 T02180171  RH  075%=      5-min Rain = 0
KCL2 231753Z 18001KT 22/17 A3001 RMK A01 T02190172  RH  074%=      5-min Rain = 0
KCL2 231754Z 24000KT 22/17 A3001 RMK A01 T02200172  RH  074%=      5-min Rain = 0
KCL2 231755Z 25000KT 22/17 A3001 RMK A01 T02210171  RH  073%=      5-min Rain = 0
KCL2 231756Z 26000KT 22/17 A3001 RMK A01 T02220173  RH  074%=      5-min Rain = 0
KCL2 231757Z 20001KT 22/17 A3001 RMK A01 T02230169  RH  072%=      5-min Rain = 0
KCL2 231758Z 19003KT 22/17 A3001 RMK A01 T02240172  RH  072%=      5-min Rain = 0
KCL2 231759Z 19002KT 22/17 A3001 RMK A01 T02230171  RH  072%=      5-min Rain = 0
KCL2 231800Z 18001KT 22/17 A3001 RMK A01 T02220171  RH  073%=      5-min Rain = 0
KCL2 231801Z 19001KT 22/17 A3001 RMK A01 T02220170  RH  073%=      5-min Rain = 0
KCL2 231802Z 19001KT 22/17 A3001 RMK A01 T02210168  RH  072%=      5-min Rain = 0
KCL2 231803Z 20001KT 22/17 A3001 RMK A01 T02210167  RH  072%=      5-min Rain = 0
KCL2 231804Z 20000KT 22/17 A3001 RMK A01 T02210168  RH  072%=      5-min Rain = 0
KCL2 231805Z 00000KT 22/17 A3001 RMK A01 T02210169  RH  072%=      5-min Rain = 0
KCL2 231806Z 00000KT 22/17 A3001 RMK A01 T02220170  RH  072%=      5-min Rain = 0
KCL2 231807Z 15000KT 22/17 A3001 RMK A01 T02230168  RH  071%=      5-min Rain = 0
KCL2 231808Z 14002KT 22/17 A3001 RMK A01 T02240169  RH  071%=      5-min Rain = 0
KCL2 231809Z 16004KT 23/17 A3001 RMK A01 T02250173  RH  073%=      5-min Rain = 0
KCL2 231810Z 14004KT 23/17 A3001 RMK A01 T02250170  RH  071%=      5-min Rain = 0
KCL2 231811Z 15004KT 22/17 A3001 RMK A01 T02230168  RH  071%=      5-min Rain = 0
KCL2 231812Z 15004KT 22/17 A3001 RMK A01 T02220171  RH  073%=      5-min Rain = 0
KCL2 231813Z 13003KT 22/17 A3001 RMK A01 T02210168  RH  072%=      5-min Rain = 0
KCL2 231814Z 14001KT 22/17 A3001 RMK A01 T02210168  RH  072%=      5-min Rain = 0
KCL2 231815Z 17005KT 22/17 A3001 RMK A01 T02210170  RH  073%=      5-min Rain = 0
KCL2 231816Z 17005KT 22/17 A3001 RMK A01 T02220169  RH  072%=      5-min Rain = 0
KCL2 231817Z 17004KT 22/17 A3001 RMK A01 T02220167  RH  071%=      5-min Rain = 0
KCL2 231818Z 19003KT 22/17 A3001 RMK A01 T02220168  RH  071%=      5-min Rain = 0
KCL2 231819Z 20005KT 22/17 A3001 RMK A01 T02230169  RH  072%=      5-min Rain = 0
KCL2 231820Z 21004KT 22/17 A3001 RMK A01 T02240168  RH  071%=      5-min Rain = 0
KCL2 231821Z 22003KT 22/17 A3001 RMK A01 T02240167  RH  070%=      5-min Rain = 0
KCL2 231822Z 20003KT 22/17 A3001 RMK A01 T02240172  RH  073%=      5-min Rain = 0
KCL2 231823Z 18004KT 23/17 A3001 RMK A01 T02260171  RH  071%=      5-min Rain = 0
KCL2 231824Z 15003KT 23/17 A30 RMK A01 T02260167  RH  069%=      5-min Rain = 0
KCL2 231825Z 13002KT 23/17 A30 RMK A01 T02260168  RH  070%=      5-min Rain = 0
KCL2 231826Z 18001KT 23/17 A30 RMK A01 T02250169  RH  071%=      5-min Rain = 0
KCL2 231827Z 19002KT 23/17 A30 RMK A01 T02250169  RH  071%=      5-min Rain = 0
KCL2 231828Z 20002KT 23/17 A30 RMK A01 T02260167  RH  069%=      5-min Rain = 0
KCL2 231829Z 16002KT 23/17 A30 RMK A01 T02260166  RH  069%=      5-min Rain = 0
KCL2 231830Z 21000KT 23/17 A30 RMK A01 T02260167  RH  070%=      5-min Rain = 0
KCL2 231831Z 17002KT 23/17 A30 RMK A01 T02260168  RH  070%=      5-min Rain = 0
KCL2 231832Z 19003KT 23/17 A30 RMK A01 T02260168  RH  070%=      5-min Rain = 0
KCL2 231833Z 17004KT 23/17 A30 RMK A01 T02260167  RH  069%=      5-min Rain = 0
KCL2 231834Z 17004KT 23/17 A30 RMK A01 T02250167  RH  069%=      5-min Rain = 0
KCL2 231835Z 20005KT 23/17 A30 RMK A01 T02250167  RH  070%=      5-min Rain = 0
KCL2 231836Z 19006KT 22/17 A30 RMK A01 T02240167  RH  070%=      5-min Rain = 0
KCL2 231837Z 20005KT 22/17 A30 RMK A01 T02240166  RH  070%=      5-min Rain = 0
KCL2 231838Z 22004KT 22/17 A30 RMK A01 T02220168  RH  071%=      5-min Rain = 0
KCL2 231839Z 22003KT 22/17 A30 RMK A01 T02210167  RH  071%=      5-min Rain = 0
KCL2 231840Z 22003KT 22/17 A30 RMK A01 T02200170  RH  073%=      5-min Rain = 0
KCL2 231841Z 20004KT 22/17 A30 RMK A01 T02180173  RH  075%=      5-min Rain = 0
KCL2 231842Z 18005KT 22/17 A30 RMK A01 T02170171  RH  075%=      5-min Rain = 0
KCL2 231843Z 16006KT 22/18 A30 RMK A01 T02150175  RH  078%=      5-min Rain = 0.03
KCL2 231844Z 14006KT 21/17 A30 RMK A01 T02120173  RH  078%=      5-min Rain = 0.05
KCL2 231845Z 14004KT 21/17 A30 RMK A01 T02070173  RH  081%=      5-min Rain = 0.03
KCL2 231846Z 16003KT 20/17 A30 RMK A01 T02030173  RH  083%=      5-min Rain = 0.03
KCL2 231847Z 19003KT 20/17 A30 RMK A01 T02010174  RH  085%=      5-min Rain = 0.02
KCL2 231848Z 22005KT 20/18 A30 RMK A01 T01990175  RH  086%=      5-min Rain = 0.02
KCL2 231849Z 23004KT 20/17 A30 RMK A01 T01970174  RH  086%=      5-min Rain = 0.01
KCL2 231850Z 24003KT 20/17 A30 RMK A01 T01960170  RH  085%=      5-min Rain = 0
KCL2 231851Z 25004KT 20/17 A30 RMK A01 T01950174  RH  087%=      5-min Rain = 0
KCL2 231852Z 28006KT 20/17 A30 RMK A01 T01950174  RH  088%=      5-min Rain = 0
KCL2 231853Z 32011KT 20/18 A3001 RMK A01 T01950178  RH  090%=      5-min Rain = 0.01
KCL2 231854Z 31010KT 19/17 A3001 RMK A01 T01930174  RH  089%=      5-min Rain = 0
KCL2 231855Z 31013KT 19/17 A3001 RMK A01 T01890172  RH  090%=      5-min Rain = 0
KCL2 231856Z 32012KT 19/17 A3001 RMK A01 T01860171  RH  091%=      5-min Rain = 0.02
KCL2 231857Z 34012KT 18/17 A3001 RMK A01 T01830172  RH  093%=      5-min Rain = 0.05
KCL2 231858Z 35016KT 18/17 A30 RMK A01 T01810171  RH  094%=      5-min Rain = 0.04
KCL2 231859Z 35015KT 18/17 A30 RMK A01 T01790170  RH  095%=      5-min Rain = 0.01
KCL2 231900Z 36013KT 18/17 A30 RMK A01 T01780170  RH  095%=      5-min Rain = 0.02
KCL2 231901Z 36010KT 18/17 A30 RMK A01 T01770171  RH  096%=      5-min Rain = 0
KCL2 231902Z 36009KT 18/17 A30 RMK A01 T01770172  RH  097%=      5-min Rain = 0
KCL2 231903Z 35010KT 18/17 A30 RMK A01 T01770173  RH  097%=      5-min Rain = 0
KCL2 231904Z 35011KT 18/17 A30 RMK A01 T01770173  RH  097%=      5-min Rain = 0
KCL2 231905Z 35010KT 18/17 A30 RMK A01 T01770172  RH  097%=      5-min Rain = 0
KCL2 231906Z 35010KT 18/17 A30 RMK A01 T01770173  RH  098%=      5-min Rain = 0
KCL2 231907Z 36009KT 18/17 A30 RMK A01 T01770173  RH  098%=      5-min Rain = 0
KCL2 231908Z 36009KT 18/17 A30 RMK A01 T01770174  RH  098%=      5-min Rain = 0
KCL2 231909Z 35009KT 18/17 A30 RMK A01 T01780174  RH  098%=      5-min Rain = 0.01
KCL2 231910Z 35009KT 18/17 A30 RMK A01 T01780174  RH  098%=      5-min Rain = 0
KCL2 231911Z 00008KT 18/17 A2999 RMK A01 T01780174  RH  098%=      5-min Rain = 0
KCL2 231912Z 01008KT 18/18 A2999 RMK A01 T01780175  RH  098%=      5-min Rain = 0
KCL2 231913Z 01006KT 18/18 A2999 RMK A01 T01780175  RH  098%=      5-min Rain = 0
KCL2 231914Z 01008KT 18/18 A2999 RMK A01 T01780175  RH  098%=      5-min Rain = 0
KCL2 231915Z 01005KT 18/18 A2999 RMK A01 T01780175  RH  098%=      5-min Rain = 0
KCL2 231916Z 02009KT 18/18 A2999 RMK A01 T01790176  RH  098%=      5-min Rain = 0
KCL2 231917Z 01009KT 18/18 A2999 RMK A01 T01780175  RH  098%=      5-min Rain = 0
KCL2 231918Z 00007KT 18/18 A2999 RMK A01 T01780175  RH  098%=      5-min Rain = 0
KCL2 231919Z 00007KT 18/18 A2999 RMK A01 T01790176  RH  098%=      5-min Rain = 0
KCL2 231920Z 00008KT 18/18 A2999 RMK A01 T01800177  RH  098%=      5-min Rain = 0
KCL2 231921Z 36007KT 18/18 A2999 RMK A01 T01810178  RH  098%=      5-min Rain = 0
KCL2 231922Z 00008KT 18/18 A2999 RMK A01 T01820179  RH  098%=      5-min Rain = 0
KCL2 231923Z 01006KT 18/18 A2999 RMK A01 T01830180  RH  099%=      5-min Rain = 0
KCL2 231924Z 02007KT 18/18 A2999 RMK A01 T01830181  RH  099%=      5-min Rain = 0
KCL2 231925Z 02007KT 18/18 A2999 RMK A01 T01830181  RH  098%=      5-min Rain = 0
KCL2 231926Z 01006KT 18/18 A2998 RMK A01 T01840181  RH  098%=      5-min Rain = 0
KCL2 231927Z 02006KT 19/18 A2998 RMK A01 T01850183  RH  098%=      5-min Rain = 0
KCL2 231928Z 02007KT 19/19 A2998 RMK A01 T01870185  RH  099%=      5-min Rain = 0
KCL2 231929Z 01008KT 19/19 A2998 RMK A01 T01870185  RH  098%=      5-min Rain = 0
KCL2 231930Z 02007KT 19/19 A2998 RMK A01 T01880185  RH  098%=      5-min Rain = 0
KCL2 231931Z 02008KT 19/19 A2998 RMK A01 T01900186  RH  098%=      5-min Rain = 0.01
KCL2 231932Z 01008KT 19/19 A2998 RMK A01 T01910188  RH  098%=      5-min Rain = 0
KCL2 231933Z 01008KT 19/19 A2998 RMK A01 T01930190  RH  098%=      5-min Rain = 0
KCL2 231934Z 35006KT 19/19 A2998 RMK A01 T01940190  RH  098%=      5-min Rain = 0
KCL2 231935Z 35007KT 19/19 A2998 RMK A01 T01940190  RH  097%=      5-min Rain = 0
KCL2 231936Z 35006KT 20/19 A2998 RMK A01 T01960191  RH  097%=      5-min Rain = 0
KCL2 231937Z 36007KT 20/19 A2998 RMK A01 T01970192  RH  097%=      5-min Rain = 0
KCL2 231938Z 00007KT 20/19 A2998 RMK A01 T01980193  RH  097%=      5-min Rain = 0
KCL2 231939Z 01008KT 20/19 A2998 RMK A01 T01990192  RH  096%=      5-min Rain = 0
KCL2 231940Z 00008KT 20/19 A2998 RMK A01 T01990188  RH  094%=      5-min Rain = 0
KCL2 231941Z 00009KT 20/19 A2998 RMK A01 T02000190  RH  094%=      5-min Rain = 0
KCL2 231942Z 36007KT 20/19 A2998 RMK A01 T02010189  RH  093%=      5-min Rain = 0
KCL2 231943Z 01007KT 20/19 A2998 RMK A01 T02020192  RH  094%=      5-min Rain = 0
KCL2 231944Z 00008KT 20/19 A2998 RMK A01 T02040191  RH  092%=      5-min Rain = 0
KCL2 231945Z 00008KT 21/19 A2998 RMK A01 T02050189  RH  091%=      5-min Rain = 0
KCL2 231946Z 00007KT 21/19 A2998 RMK A01 T02050188  RH  090%=      5-min Rain = 0
KCL2 231947Z 00008KT 21/19 A2998 RMK A01 T02050186  RH  089%=      5-min Rain = 0
KCL2 231948Z 02007KT 20/19 A2998 RMK A01 T02040185  RH  089%=      5-min Rain = 0
KCL2 231949Z 02008KT 20/19 A2998 RMK A01 T02040187  RH  090%=      5-min Rain = 0
KCL2 231950Z 03009KT 20/19 A2997 RMK A01 T02040185  RH  089%=      5-min Rain = 0
KCL2 231951Z 02008KT 20/18 A2997 RMK A01 T02040184  RH  088%=      5-min Rain = 0
KCL2 231952Z 03007KT 20/19 A2997 RMK A01 T02040187  RH  090%=      5-min Rain = 0
KCL2 231953Z 01006KT 21/19 A2997 RMK A01 T02060192  RH  092%=      5-min Rain = 0
KCL2 231954Z 02008KT 21/19 A2997 RMK A01 T02070187  RH  088%=      5-min Rain = 0
KCL2 231955Z 01006KT 21/19 A2997 RMK A01 T02070187  RH  088%=      5-min Rain = 0
KCL2 231956Z 00007KT 21/19 A2997 RMK A01 T02070187  RH  088%=      5-min Rain = 0
KCL2 231957Z 01006KT 21/18 A2997 RMK A01 T02070184  RH  087%=      5-min Rain = 0
KCL2 231958Z 02005KT 21/19 A2997 RMK A01 T02070187  RH  089%=      5-min Rain = 0
KCL2 231959Z 02005KT 21/19 A2997 RMK A01 T02090193  RH  090%=      5-min Rain = 0
KCL2 232000Z 02007KT 21/19 A2997 RMK A01 T02120190  RH  087%=      5-min Rain = 0
KCL2 232001Z 01006KT 21/19 A2998 RMK A01 T02130186  RH  085%=      5-min Rain = 0
KCL2 232002Z 01006KT 21/18 A2998 RMK A01 T02110182  RH  083%=      5-min Rain = 0
KCL2 232003Z 01006KT 21/18 A2998 RMK A01 T02100183  RH  084%=      5-min Rain = 0
KCL2 232004Z 01006KT 21/18 A2998 RMK A01 T02100184  RH  085%=      5-min Rain = 0
KCL2 232005Z 01004KT 21/19 A2998 RMK A01 T02100186  RH  086%=      5-min Rain = 0
KCL2 232006Z 02005KT 21/19 A2998 RMK A01 T02110188  RH  087%=      5-min Rain = 0
KCL2 232007Z 02005KT 21/19 A2998 RMK A01 T02120187  RH  086%=      5-min Rain = 0
KCL2 232008Z 02006KT 21/19 A2998 RMK A01 T02120185  RH  085%=      5-min Rain = 0
KCL2 232009Z 02004KT 21/18 A2998 RMK A01 T02120183  RH  084%=      5-min Rain = 0
KCL2 232010Z 03006KT 21/19 A2998 RMK A01 T02120189  RH  086%=      5-min Rain = 0
KCL2 232011Z 03008KT 21/19 A2998 RMK A01 T02130190  RH  087%=      5-min Rain = 0
KCL2 232012Z 03008KT 21/19 A2998 RMK A01 T02130187  RH  085%=      5-min Rain = 0
KCL2 232013Z 03006KT 21/19 A2997 RMK A01 T02120186  RH  085%=      5-min Rain = 0
KCL2 232014Z 04007KT 21/19 A2997 RMK A01 T02120186  RH  085%=      5-min Rain = 0
KCL2 232015Z 03007KT 21/19 A2997 RMK A01 T02120186  RH  085%=      5-min Rain = 0
KCL2 232016Z 03005KT 21/18 A2997 RMK A01 T02120184  RH  084%=      5-min Rain = 0
KCL2 232017Z 04004KT 21/19 A2998 RMK A01 T02120187  RH  086%=      5-min Rain = 0
KCL2 232018Z 03006KT 21/19 A2997 RMK A01 T02130187  RH  085%=      5-min Rain = 0
KCL2 232019Z 05005KT 21/19 A2997 RMK A01 T02130186  RH  085%=      5-min Rain = 0
KCL2 232020Z 05006KT 21/19 A2997 RMK A01 T02130185  RH  084%=      5-min Rain = 0
KCL2 232021Z 03005KT 21/19 A2997 RMK A01 T02140187  RH  085%=      5-min Rain = 0
KCL2 232022Z 03004KT 21/19 A2997 RMK A01 T02140188  RH  085%=      5-min Rain = 0
KCL2 232023Z 02004KT 21/19 A2997 RMK A01 T02140186  RH  084%=      5-min Rain = 0
KCL2 232024Z 04005KT 21/19 A2997 RMK A01 T02140187  RH  085%=      5-min Rain = 0
KCL2 232025Z 02003KT 21/19 A2997 RMK A01 T02140188  RH  085%=      5-min Rain = 0
KCL2 232026Z 02002KT 21/19 A2997 RMK A01 T02140185  RH  084%=      5-min Rain = 0
KCL2 232027Z 02004KT 21/19 A2997 RMK A01 T02140187  RH  084%=      5-min Rain = 0
KCL2 232028Z 03005KT 21/19 A2997 RMK A01 T02140188  RH  085%=      5-min Rain = 0
KCL2 232029Z 03005KT 21/18 A2997 RMK A01 T02140184  RH  083%=      5-min Rain = 0
KCL2 232030Z 04004KT 21/19 A2997 RMK A01 T02140187  RH  085%=      5-min Rain = 0
KCL2 232031Z 02004KT 21/19 A2997 RMK A01 T02140187  RH  085%=      5-min Rain = 0
KCL2 232032Z 03004KT 21/19 A2997 RMK A01 T02140187  RH  084%=      5-min Rain = 0.01
KCL2 232033Z 03004KT 21/19 A2997 RMK A01 T02140185  RH  084%=      5-min Rain = 0.01
KCL2 232034Z 02004KT 21/19 A2997 RMK A01 T02120185  RH  084%=      5-min Rain = 0.01
KCL2 232035Z 03004KT 21/19 A2997 RMK A01 T02120189  RH  087%=      5-min Rain = 0
KCL2 232036Z 04004KT 21/19 A2997 RMK A01 T02110192  RH  089%=      5-min Rain = 0.01
KCL2 232037Z 02004KT 21/19 A2997 RMK A01 T02110194  RH  090%=      5-min Rain = 0.02
KCL2 232038Z 01006KT 21/19 A2996 RMK A01 T02120191  RH  088%=      5-min Rain = 0.01
KCL2 232039Z 02007KT 21/19 A2996 RMK A01 T02110187  RH  086%=      5-min Rain = 0
KCL2 232040Z 03007KT 21/19 A2996 RMK A01 T02100188  RH  087%=      5-min Rain = 0
KCL2 232041Z 04007KT 21/19 A2996 RMK A01 T02100189  RH  088%=      5-min Rain = 0
KCL2 232042Z 04008KT 21/19 A2996 RMK A01 T02100189  RH  088%=      5-min Rain = 0
KCL2 232043Z 05008KT 21/19 A2996 RMK A01 T02100189  RH  088%=      5-min Rain = 0
KCL2 232044Z 04007KT 21/19 A2996 RMK A01 T02100189  RH  088%=      5-min Rain = 0
KCL2 232045Z 04006KT 21/19 A2996 RMK A01 T02110191  RH  089%=      5-min Rain = 0
KCL2 232046Z 04006KT 21/19 A2996 RMK A01 T02110190  RH  088%=      5-min Rain = 0
KCL2 232047Z 05006KT 21/19 A2996 RMK A01 T02110191  RH  088%=      5-min Rain = 0
KCL2 232048Z 05007KT 21/19 A2996 RMK A01 T02110188  RH  087%=      5-min Rain = 0
KCL2 232049Z 05006KT 21/19 A2996 RMK A01 T02110187  RH  086%=      5-min Rain = 0
KCL2 232050Z 06006KT 21/19 A2996 RMK A01 T02100186  RH  086%=      5-min Rain = 0
KCL2 232051Z 05007KT 21/19 A2996 RMK A01 T02100187  RH  086%=      5-min Rain = 0
KCL2 232052Z 05006KT 21/19 A2996 RMK A01 T02100185  RH  085%=      5-min Rain = 0
KCL2 232053Z 06006KT 21/19 A2996 RMK A01 T02100187  RH  087%=      5-min Rain = 0
KCL2 232054Z 05007KT 21/19 A2996 RMK A01 T02100191  RH  089%=      5-min Rain = 0
KCL2 232055Z 06006KT 21/19 A2996 RMK A01 T02100190  RH  088%=      5-min Rain = 0
KCL2 232056Z 06007KT 21/19 A2995 RMK A01 T02100191  RH  089%=      5-min Rain = 0
KCL2 232057Z 06007KT 21/19 A2995 RMK A01 T02090189  RH  088%=      5-min Rain = 0
KCL2 232058Z 06007KT 21/19 A2995 RMK A01 T02090189  RH  089%=      5-min Rain = 0
KCL2 232059Z 06007KT 21/19 A2995 RMK A01 T02090188  RH  088%=      5-min Rain = 0
KCL2 232100Z 06005KT 21/19 A2995 RMK A01 T02080189  RH  089%=      5-min Rain = 0
KCL2 232101Z 07007KT 21/19 A2995 RMK A01 T02080190  RH  089%=      5-min Rain = 0
KCL2 232102Z 06007KT 21/19 A2995 RMK A01 T02080189  RH  089%=      5-min Rain = 0
KCL2 232103Z 06006KT 21/19 A2995 RMK A01 T02070187  RH  088%=      5-min Rain = 0
KCL2 232104Z 07007KT 21/19 A2995 RMK A01 T02070188  RH  089%=      5-min Rain = 0
KCL2 232105Z 07005KT 21/19 A2995 RMK A01 T02070188  RH  089%=      5-min Rain = 0
KCL2 232106Z 07004KT 21/19 A2995 RMK A01 T02060189  RH  090%=      5-min Rain = 0.02
KCL2 232107Z 07004KT 21/19 A2995 RMK A01 T02060188  RH  089%=      5-min Rain = 0
KCL2 232108Z 07004KT 21/19 A2995 RMK A01 T02060187  RH  089%=      5-min Rain = 0.01
KCL2 232109Z 07002KT 21/19 A2995 RMK A01 T02050187  RH  089%=      5-min Rain = 0.04
KCL2 232110Z 04003KT 21/19 A2995 RMK A01 T02050189  RH  090%=      5-min Rain = 0.05
KCL2 232111Z 04003KT 20/19 A2995 RMK A01 T02040189  RH  091%=      5-min Rain = 0.02
KCL2 232112Z 03005KT 20/19 A2994 RMK A01 T02030189  RH  092%=      5-min Rain = 0.03
KCL2 232113Z 03005KT 20/19 A2994 RMK A01 T02020189  RH  093%=      5-min Rain = 0.01
KCL2 232114Z 04004KT 20/19 A2994 RMK A01 T02010189  RH  093%=      5-min Rain = 0.01
KCL2 232115Z 06003KT 20/19 A2994 RMK A01 T02000190  RH  094%=      5-min Rain = 0.02
KCL2 232116Z 06005KT 20/19 A2994 RMK A01 T02000191  RH  094%=      5-min Rain = 0
KCL2 232117Z 06006KT 20/19 A2994 RMK A01 T02000189  RH  093%=      5-min Rain = 0
KCL2 232118Z 06006KT 20/19 A2994 RMK A01 T02000186  RH  092%=      5-min Rain = 0
KCL2 232119Z 06005KT 20/19 A2994 RMK A01 T02000188  RH  093%=      5-min Rain = 0
KCL2 232120Z 08005KT 20/19 A2994 RMK A01 T02000189  RH  093%=      5-min Rain = 0
KCL2 232121Z 07005KT 20/19 A2994 RMK A01 T02000189  RH  093%=      5-min Rain = 0
KCL2 232122Z 07006KT 20/19 A2994 RMK A01 T02010190  RH  093%=      5-min Rain = 0
KCL2 232123Z 08006KT 20/19 A2993 RMK A01 T02010189  RH  093%=      5-min Rain = 0
KCL2 232124Z 08006KT 20/19 A2993 RMK A01 T02010190  RH  093%=      5-min Rain = 0
KCL2 232125Z 07005KT 20/19 A2993 RMK A01 T02000188  RH  093%=      5-min Rain = 0
KCL2 232126Z 07004KT 20/19 A2993 RMK A01 T02000188  RH  093%=      5-min Rain = 0
KCL2 232127Z 06006KT 20/19 A2993 RMK A01 T02000187  RH  093%=      5-min Rain = 0
KCL2 232128Z 07006KT 20/19 A2993 RMK A01 T01990186  RH  092%=      5-min Rain = 0
KCL2 232129Z 08005KT 20/19 A2993 RMK A01 T01990187  RH  093%=      5-min Rain = 0
KCL2 232130Z 07005KT 20/19 A2994 RMK A01 T01980185  RH  092%=      5-min Rain = 0
KCL2 232131Z 09005KT 20/19 A2994 RMK A01 T01980185  RH  092%=      5-min Rain = 0
KCL2 232132Z 10004KT 20/19 A2994 RMK A01 T01980186  RH  093%=      5-min Rain = 0
KCL2 232133Z 09005KT 20/19 A2994 RMK A01 T01980186  RH  093%=      5-min Rain = 0.01
KCL2 232134Z 10005KT 20/19 A2994 RMK A01 T01980185  RH  093%=      5-min Rain = 0
KCL2 232135Z 09006KT 20/19 A2993 RMK A01 T01970185  RH  093%=      5-min Rain = 0
KCL2 232136Z 09005KT 20/18 A2993 RMK A01 T01960184  RH  092%=      5-min Rain = 0
KCL2 232137Z 09006KT 20/18 A2993 RMK A01 T01960184  RH  092%=      5-min Rain = 0
KCL2 232138Z 10006KT 20/19 A2993 RMK A01 T01960185  RH  093%=      5-min Rain = 0
KCL2 232139Z 09005KT 20/19 A2993 RMK A01 T01960186  RH  094%=      5-min Rain = 0
KCL2 232140Z 10003KT 20/19 A2993 RMK A01 T01960186  RH  094%=      5-min Rain = 0
KCL2 232141Z 08004KT 20/19 A2993 RMK A01 T01960187  RH  094%=      5-min Rain = 0
KCL2 232142Z 06005KT 20/19 A2993 RMK A01 T01960185  RH  094%=      5-min Rain = 0.01
KCL2 232143Z 05005KT 20/19 A2992 RMK A01 T01960186  RH  094%=      5-min Rain = 0
KCL2 232144Z 05006KT 20/19 A2992 RMK A01 T01960187  RH  095%=      5-min Rain = 0
KCL2 232145Z 03006KT 20/19 A2993 RMK A01 T01960188  RH  095%=      5-min Rain = 0
KCL2 232146Z 03005KT 20/19 A2993 RMK A01 T01960188  RH  095%=      5-min Rain = 0
KCL2 232147Z 03007KT 20/19 A2993 RMK A01 T01950186  RH  095%=      5-min Rain = 0
KCL2 232148Z 03006KT 20/19 A2993 RMK A01 T01950186  RH  095%=      5-min Rain = 0
KCL2 232149Z 02007KT 20/19 A2993 RMK A01 T01950187  RH  095%=      5-min Rain = 0
KCL2 232150Z 02010KT 19/19 A2993 RMK A01 T01940185  RH  095%=      5-min Rain = 0
KCL2 232151Z 03011KT 19/18 A2992 RMK A01 T01920182  RH  094%=      5-min Rain = 0
KCL2 232152Z 04011KT 19/18 A2992 RMK A01 T01910179  RH  093%=      5-min Rain = 0
KCL2 232153Z 03011KT 19/18 A2992 RMK A01 T01900178  RH  093%=      5-min Rain = 0
KCL2 232154Z 03009KT 19/18 A2992 RMK A01 T01890179  RH  093%=      5-min Rain = 0
KCL2 232155Z 03009KT 19/18 A2992 RMK A01 T01890180  RH  094%=      5-min Rain = 0
KCL2 232156Z 03011KT 19/18 A2992 RMK A01 T01890179  RH  094%=      5-min Rain = 0
KCL2 232157Z 03011KT 19/18 A2992 RMK A01 T01880176  RH  093%=      5-min Rain = 0
KCL2 232158Z 04010KT 19/18 A2992 RMK A01 T01870175  RH  093%=      5-min Rain = 0
KCL2 232159Z 03010KT 19/17 A2992 RMK A01 T01870174  RH  092%=      5-min Rain = 0
KCL2 232200Z 03009KT 19/17 A2992 RMK A01 T01860174  RH  092%=      5-min Rain = 0
KCL2 232201Z 04009KT 19/17 A2992 RMK A01 T01860174  RH  093%=      5-min Rain = 0
KCL2 232202Z 04009KT 19/17 A2992 RMK A01 T01860174  RH  093%=      5-min Rain = 0
KCL2 232203Z 03009KT 19/17 A2992 RMK A01 T01860174  RH  093%=      5-min Rain = 0
KCL2 232204Z 03009KT 19/17 A2992 RMK A01 T01860174  RH  093%=      5-min Rain = 0
KCL2 232205Z 04009KT 19/18 A2991 RMK A01 T01860176  RH  094%=      5-min Rain = 0
KCL2 232206Z 04010KT 19/18 A2991 RMK A01 T01850176  RH  094%=      5-min Rain = 0
KCL2 232207Z 04010KT 19/18 A2991 RMK A01 T01850175  RH  094%=      5-min Rain = 0
KCL2 232208Z 04009KT 19/18 A2991 RMK A01 T01850176  RH  094%=      5-min Rain = 0
KCL2 232209Z 04013KT 18/18 A2991 RMK A01 T01840176  RH  095%=      5-min Rain = 0
KCL2 232210Z 04011KT 18/18 A299 RMK A01 T01840175  RH  095%=      5-min Rain = 0
KCL2 232211Z 04012KT 18/18 A299 RMK A01 T01830175  RH  095%=      5-min Rain = 0
KCL2 232212Z 03012KT 18/18 A299 RMK A01 T01830175  RH  095%=      5-min Rain = 0
KCL2 232213Z 04012KT 18/17 A299 RMK A01 T01830174  RH  095%=      5-min Rain = 0
KCL2 232214Z 04014KT 18/17 A299 RMK A01 T01820173  RH  094%=      5-min Rain = 0
KCL2 232215Z 04013KT 18/17 A2989 RMK A01 T01820172  RH  094%=      5-min Rain = 0
KCL2 232216Z 04011KT 18/17 A2989 RMK A01 T01820172  RH  094%=      5-min Rain = 0
KCL2 232217Z 04012KT 18/17 A2989 RMK A01 T01820172  RH  094%=      5-min Rain = 0
KCL2 232218Z 04013KT 18/17 A2989 RMK A01 T01810172  RH  094%=      5-min Rain = 0
KCL2 232219Z 04014KT 18/17 A2989 RMK A01 T01810171  RH  094%=      5-min Rain = 0
KCL2 232220Z 03012KT 18/17 A2989 RMK A01 T01810171  RH  094%=      5-min Rain = 0
KCL2 232221Z 03012KT 18/17 A299 RMK A01 T01810171  RH  094%=      5-min Rain = 0
KCL2 232222Z 03011KT 18/17 A299 RMK A01 T01810171  RH  094%=      5-min Rain = 0
KCL2 232223Z 03009KT 18/17 A299 RMK A01 T01810171  RH  094%=      5-min Rain = 0
KCL2 232224Z 03009KT 18/17 A299 RMK A01 T01800171  RH  095%=      5-min Rain = 0
KCL2 232225Z 04011KT 18/17 A299 RMK A01 T01800172  RH  095%=      5-min Rain = 0.01
KCL2 232226Z 05009KT 18/17 A299 RMK A01 T01790172  RH  095%=      5-min Rain = 0
KCL2 232227Z 04010KT 18/17 A2991 RMK A01 T01790172  RH  095%=      5-min Rain = 0
KCL2 232228Z 04007KT 18/17 A2991 RMK A01 T01790172  RH  095%=      5-min Rain = 0
KCL2 232229Z 05007KT 18/17 A2991 RMK A01 T01790172  RH  096%=      5-min Rain = 0.01
KCL2 232230Z 03008KT 18/17 A2991 RMK A01 T01780172  RH  096%=      5-min Rain = 0
KCL2 232231Z 04007KT 18/17 A2991 RMK A01 T01780172  RH  096%=      5-min Rain = 0.01
KCL2 232232Z 03009KT 18/17 A2991 RMK A01 T01780172  RH  096%=      5-min Rain = 0.04
KCL2 232233Z 03006KT 18/17 A2992 RMK A01 T01770171  RH  096%=      5-min Rain = 0.03
KCL2 232234Z 03006KT 18/17 A2992 RMK A01 T01770172  RH  097%=      5-min Rain = 0.03
KCL2 232235Z 04006KT 18/17 A2992 RMK A01 T01760172  RH  097%=      5-min Rain = 0.04
KCL2 232236Z 04007KT 18/17 A2993 RMK A01 T01760172  RH  097%=      5-min Rain = 0.04
KCL2 232237Z 04005KT 18/17 A2993 RMK A01 T01750171  RH  098%=      5-min Rain = 0.04
KCL2 232238Z 04008KT 18/17 A2994 RMK A01 T01750171  RH  098%=      5-min Rain = 0.05
KCL2 232239Z 03006KT 17/17 A2994 RMK A01 T01730170  RH  098%=      5-min Rain = 0.04
KCL2 232240Z 05005KT 17/17 A2994 RMK A01 T01730170  RH  098%=      5-min Rain = 0.02
KCL2 232241Z 04004KT 17/17 A2994 RMK A01 T01720169  RH  098%=      5-min Rain = 0.03
KCL2 232242Z 02004KT 17/17 A2995 RMK A01 T01720169  RH  098%=      5-min Rain = 0.04
KCL2 232243Z 02003KT 17/17 A2996 RMK A01 T01720169  RH  098%=      5-min Rain = 0.01
KCL2 232244Z 33003KT 17/17 A2996 RMK A01 T01710168  RH  098%=      5-min Rain = 0.02
KCL2 232245Z 29003KT 17/17 A2997 RMK A01 T01710168  RH  098%=      5-min Rain = 0.02
KCL2 232246Z 27003KT 17/17 A2997 RMK A01 T01710168  RH  098%=      5-min Rain = 0.02
KCL2 232247Z 23004KT 17/17 A2997 RMK A01 T01710168  RH  098%=      5-min Rain = 0.03
KCL2 232248Z 21007KT 17/17 A2997 RMK A01 T01710168  RH  098%=      5-min Rain = 0.03
KCL2 232249Z 21007KT 17/17 A2997 RMK A01 T01710169  RH  098%=      5-min Rain = 0.02
KCL2 232250Z 20008KT 17/17 A2997 RMK A01 T01710169  RH  098%=      5-min Rain = 0.03
KCL2 232251Z 20010KT 17/17 A2997 RMK A01 T01710169  RH  098%=      5-min Rain = 0.03
KCL2 232252Z 20011KT 17/17 A2997 RMK A01 T01700167  RH  098%=      5-min Rain = 0.05
KCL2 232253Z 21012KT 17/16 A2997 RMK A01 T01670163  RH  098%=      5-min Rain = 0.05
KCL2 232254Z 20015KT 16/16 A2997 RMK A01 T01640160  RH  097%=      5-min Rain = 0.06
KCL2 232255Z 20014KT 16/16 A2997 RMK A01 T01610156  RH  097%=      5-min Rain = 0.06
KCL2 232256Z 21012KT 16/15 A2997 RMK A01 T01570151  RH  096%=      5-min Rain = 0.06
KCL2 232257Z 21009KT 15/15 A2997 RMK A01 T01530147  RH  096%=      5-min Rain = 0.04
KCL2 232258Z 20006KT 15/15 A2996 RMK A01 T01510147  RH  097%=      5-min Rain = 0.02
KCL2 232259Z 20003KT 15/15 A2996 RMK A01 T01510147  RH  098%=      5-min Rain = 0.03
KCL2 232300Z 22001KT 15/15 A2996 RMK A01 T01510148  RH  098%=      5-min Rain = 0.01
KCL2 232301Z 26001KT 15/15 A2996 RMK A01 T01510149  RH  099%=      5-min Rain = 0.02
KCL2 232302Z 25001KT 15/15 A2996 RMK A01 T01510149  RH  099%=      5-min Rain = 0.01
KCL2 232303Z 24001KT 15/15 A2995 RMK A01 T01510150  RH  099%=      5-min Rain = 0.02
KCL2 232304Z 23001KT 15/15 A2995 RMK A01 T01510150  RH  099%=      5-min Rain = 0.01
KCL2 232305Z 22000KT 15/15 A2995 RMK A01 T01520151  RH  099%=      5-min Rain = 0
KCL2 232306Z 00000KT 15/15 A2994 RMK A01 T01530152  RH  099%=      5-min Rain = 0.01
KCL2 232307Z 03000KT 15/15 A2994 RMK A01 T01530152  RH  099%=      5-min Rain = 0
KCL2 232308Z 04002KT 15/15 A2994 RMK A01 T01530152  RH  099%=      5-min Rain = 0
KCL2 232309Z 06003KT 15/15 A2993 RMK A01 T01530152  RH  099%=      5-min Rain = 0
KCL2 232310Z 08005KT 15/15 A2993 RMK A01 T01530153  RH  099%=      5-min Rain = 0.01
KCL2 232311Z 08005KT 15/15 A2993 RMK A01 T01530152  RH  099%=      5-min Rain = 0
KCL2 232312Z 09007KT 15/15 A2993 RMK A01 T01540153  RH  099%=      5-min Rain = 0.01
KCL2 232313Z 10008KT 16/15 A2993 RMK A01 T01550154  RH  100%=      5-min Rain = 0
KCL2 232314Z 11007KT 16/16 A2993 RMK A01 T01560155  RH  100%=      5-min Rain = 0
KCL2 232315Z 12007KT 16/16 A2993 RMK A01 T01560156  RH  100%=      5-min Rain = 0
KCL2 232316Z 14007KT 16/16 A2992 RMK A01 T01570157  RH  100%=      5-min Rain = 0
KCL2 232317Z 14008KT 16/16 A2993 RMK A01 T01560155  RH  100%=      5-min Rain = 0
KCL2 232318Z 14007KT 15/15 A2993 RMK A01 T01540153  RH  099%=      5-min Rain = 0
KCL2 232319Z 16005KT 15/15 A2993 RMK A01 T01520151  RH  099%=      5-min Rain = 0
KCL2 232320Z 18006KT 15/15 A2993 RMK A01 T01520151  RH  099%=      5-min Rain = 0
KCL2 232321Z 19003KT 15/15 A2993 RMK A01 T01530152  RH  100%=      5-min Rain = 0
KCL2 232322Z 23001KT 16/15 A2993 RMK A01 T01550154  RH  100%=      5-min Rain = 0
KCL2 232323Z 08001KT 16/16 A2993 RMK A01 T01570157  RH  100%=      5-min Rain = 0
KCL2 232324Z 06003KT 16/16 A2993 RMK A01 T01580158  RH  100%=      5-min Rain = 0
KCL2 232325Z 03001KT 16/16 A2993 RMK A01 T01600159  RH  100%=      5-min Rain = 0.01
KCL2 232326Z 07002KT 16/16 A2993 RMK A01 T01600160  RH  100%=      5-min Rain = 0
KCL2 232327Z 07004KT 16/16 A2993 RMK A01 T01610161  RH  100%=      5-min Rain = 0.02
KCL2 232328Z 05004KT 16/16 A2993 RMK A01 T01610161  RH  100%=      5-min Rain = 0.01
KCL2 232329Z 03003KT 16/16 A2993 RMK A01 T01610161  RH  100%=      5-min Rain = 0.01
KCL2 232330Z 04003KT 16/16 A2993 RMK A01 T01620162  RH  100%=      5-min Rain = 0
KCL2 232331Z 36004KT 16/16 A2993 RMK A01 T01630163  RH  100%=      5-min Rain = 0.01
KCL2 232332Z 01003KT 16/16 A2993 RMK A01 T01630163  RH  100%=      5-min Rain = 0
KCL2 232333Z 02002KT 16/16 A2993 RMK A01 T01640163  RH  100%=      5-min Rain = 0
KCL2 232334Z 04002KT 16/16 A2993 RMK A01 T01640164  RH  100%=      5-min Rain = 0
KCL2 232335Z 03002KT 16/16 A2993 RMK A01 T01640164  RH  100%=      5-min Rain = 0
KCL2 232336Z 04002KT 16/16 A2993 RMK A01 T01640163  RH  100%=      5-min Rain = 0.01
KCL2 232337Z 00002KT 16/16 A2993 RMK A01 T01640164  RH  100%=      5-min Rain = 0
KCL2 232338Z 35003KT 17/16 A2992 RMK A01 T01650164  RH  100%=      5-min Rain = 0
KCL2 232339Z 36003KT 17/16 A2992 RMK A01 T01650164  RH  100%=      5-min Rain = 0
KCL2 232340Z 01003KT 17/17 A2992 RMK A01 T01660166  RH  100%=      5-min Rain = 0
KCL2 232341Z 02005KT 17/17 A2992 RMK A01 T01670166  RH  100%=      5-min Rain = 0
KCL2 232342Z 02003KT 17/17 A2992 RMK A01 T01670167  RH  100%=      5-min Rain = 0
KCL2 232343Z 04002KT 17/17 A2993 RMK A01 T01680167  RH  100%=      5-min Rain = 0
KCL2 232344Z 02003KT 17/17 A2993 RMK A01 T01680167  RH  100%=      5-min Rain = 0
KCL2 232345Z 04004KT 17/17 A2993 RMK A01 T01680167  RH  099%=      5-min Rain = 0
KCL2 232346Z 03004KT 17/17 A2993 RMK A01 T01680167  RH  099%=      5-min Rain = 0
KCL2 232347Z 05006KT 17/17 A2993 RMK A01 T01680167  RH  099%=      5-min Rain = 0
KCL2 232348Z 04005KT 17/17 A2993 RMK A01 T01690168  RH  099%=      5-min Rain = 0
KCL2 232349Z 04008KT 17/17 A2993 RMK A01 T01690168  RH  099%=      5-min Rain = 0
KCL2 232350Z 06008KT 17/17 A2993 RMK A01 T01700168  RH  099%=      5-min Rain = 0
KCL2 232351Z 05009KT 17/17 A2993 RMK A01 T01700168  RH  099%=      5-min Rain = 0
KCL2 232352Z 05009KT 17/17 A2993 RMK A01 T01700168  RH  099%=      5-min Rain = 0
KCL2 232353Z 05010KT 17/17 A2993 RMK A01 T01700168  RH  098%=      5-min Rain = 0
KCL2 232354Z 05009KT 17/17 A2993 RMK A01 T01700168  RH  098%=      5-min Rain = 0
KCL2 232355Z 05009KT 17/17 A2993 RMK A01 T01700167  RH  098%=      5-min Rain = 0
KCL2 232356Z 05009KT 17/17 A2993 RMK A01 T01700167  RH  098%=      5-min Rain = 0
KCL2 232357Z 04009KT 17/17 A2993 RMK A01 T01700167  RH  098%=      5-min Rain = 0
KCL2 232358Z 04008KT 17/17 A2993 RMK A01 T01700167  RH  098%=      5-min Rain = 0.01
KCL2 232359Z 04010KT 17/17 A2994 RMK A01 T01690166  RH  098%=      5-min Rain = 0
KCL2 240000Z 05008KT 17/17 A2994 RMK A01 T01690166  RH  098%=      5-min Rain = 0
KCL2 240001Z 05009KT 17/17 A2994 RMK A01 T01690166  RH  098%=      5-min Rain = 0
KCL2 240002Z 05008KT 17/17 A2994 RMK A01 T01690166  RH  098%=      5-min Rain = 0
KCL2 240003Z 05009KT 17/17 A2993 RMK A01 T01690166  RH  098%=      5-min Rain = 0
KCL2 240004Z 05009KT 17/17 A2993 RMK A01 T01700166  RH  098%=      5-min Rain = 0
KCL2 240005Z 06008KT 17/17 A2993 RMK A01 T01690166  RH  098%=      5-min Rain = 0
KCL2 240006Z 06008KT 17/17 A2993 RMK A01 T01690167  RH  098%=      5-min Rain = 0.01
KCL2 240007Z 06009KT 17/17 A2993 RMK A01 T01690167  RH  098%=      5-min Rain = 0
KCL2 240008Z 06007KT 17/17 A2993 RMK A01 T01690166  RH  098%=      5-min Rain = 0
KCL2 240009Z 07007KT 17/17 A2993 RMK A01 T01690166  RH  098%=      5-min Rain = 0
KCL2 240010Z 06007KT 17/17 A2993 RMK A01 T01690166  RH  098%=      5-min Rain = 0
KCL2 240011Z 05007KT 17/17 A2993 RMK A01 T01690166  RH  098%=      5-min Rain = 0
KCL2 240012Z 05007KT 17/17 A2993 RMK A01 T01680166  RH  098%=      5-min Rain = 0
KCL2 240013Z 05008KT 17/17 A2993 RMK A01 T01690166  RH  098%=      5-min Rain = 0
KCL2 240014Z 05008KT 17/17 A2993 RMK A01 T01680165  RH  098%=      5-min Rain = 0
KCL2 240015Z 06008KT 17/17 A2994 RMK A01 T01680165  RH  098%=      5-min Rain = 0
KCL2 240016Z 05009KT 17/17 A2994 RMK A01 T01680165  RH  098%=      5-min Rain = 0
KCL2 240017Z 04009KT 17/17 A2995 RMK A01 T01680165  RH  098%=      5-min Rain = 0
KCL2 240018Z 05008KT 17/17 A2995 RMK A01 T01680165  RH  098%=      5-min Rain = 0
KCL2 240019Z 04008KT 17/17 A2994 RMK A01 T01670165  RH  098%=      5-min Rain = 0
KCL2 240020Z 05008KT 17/17 A2994 RMK A01 T01680165  RH  098%=      5-min Rain = 0
KCL2 240021Z 04009KT 17/17 A2994 RMK A01 T01680165  RH  098%=      5-min Rain = 0
KCL2 240022Z 04009KT 17/16 A2994 RMK A01 T01670164  RH  098%=      5-min Rain = 0
KCL2 240023Z 04010KT 17/17 A2994 RMK A01 T01670165  RH  098%=      5-min Rain = 0
KCL2 240024Z 04009KT 17/16 A2994 RMK A01 T01670164  RH  098%=      5-min Rain = 0
KCL2 240025Z 04010KT 17/16 A2994 RMK A01 T01670164  RH  098%=      5-min Rain = 0
KCL2 240026Z 04010KT 17/16 A2994 RMK A01 T01670164  RH  098%=      5-min Rain = 0
KCL2 240027Z 04009KT 17/16 A2994 RMK A01 T01670164  RH  098%=      5-min Rain = 0
KCL2 240028Z 04008KT 17/16 A2994 RMK A01 T01660164  RH  098%=      5-min Rain = 0.02
KCL2 240029Z 04012KT 17/16 A2995 RMK A01 T01660164  RH  098%=      5-min Rain = 0
KCL2 240030Z 04011KT 17/16 A2995 RMK A01 T01660164  RH  098%=      5-min Rain = 0
KCL2 240031Z 04010KT 17/16 A2995 RMK A01 T01660164  RH  098%=      5-min Rain = 0
KCL2 240032Z 04011KT 17/16 A2995 RMK A01 T01660163  RH  098%=      5-min Rain = 0
KCL2 240033Z 04011KT 17/16 A2994 RMK A01 T01660163  RH  098%=      5-min Rain = 0
KCL2 240034Z 04011KT 17/16 A2994 RMK A01 T01660163  RH  098%=      5-min Rain = 0
KCL2 240035Z 04012KT 17/16 A2994 RMK A01 T01660163  RH  098%=      5-min Rain = 0
KCL2 240036Z 04013KT 17/16 A2993 RMK A01 T01650162  RH  098%=      5-min Rain = 0
KCL2 240037Z 05014KT 17/16 A2993 RMK A01 T01650163  RH  098%=      5-min Rain = 0
KCL2 240038Z 05012KT 17/16 A2993 RMK A01 T01650162  RH  098%=      5-min Rain = 0
KCL2 240039Z 04012KT 17/16 A2993 RMK A01 T01650162  RH  098%=      5-min Rain = 0
KCL2 240040Z 05013KT 17/16 A2993 RMK A01 T01650162  RH  098%=      5-min Rain = 0
KCL2 240041Z 04012G18KT 17/16 A2993 RMK A01 T01650162  RH  098%=      5-min Rain = 0
KCL2 240042Z 04013KT 17/16 A2993 RMK A01 T01650161  RH  098%=      5-min Rain = 0
KCL2 240043Z 04012KT 17/16 A2993 RMK A01 T01650161  RH  098%=      5-min Rain = 0
KCL2 240044Z 04011KT 17/16 A2993 RMK A01 T01650161  RH  098%=      5-min Rain = 0
KCL2 240045Z 04014KT 16/16 A2993 RMK A01 T01640161  RH  098%=      5-min Rain = 0
KCL2 240046Z 04014KT 16/16 A2993 RMK A01 T01640160  RH  098%=      5-min Rain = 0
KCL2 240047Z 04014KT 16/16 A2994 RMK A01 T01630160  RH  098%=      5-min Rain = 0
KCL2 240048Z 04015KT 16/16 A2994 RMK A01 T01630160  RH  098%=      5-min Rain = 0
KCL2 240049Z 04013KT 16/16 A2993 RMK A01 T01630160  RH  098%=      5-min Rain = 0
KCL2 240050Z 04011KT 16/16 A2993 RMK A01 T01630159  RH  098%=      5-min Rain = 0
KCL2 240051Z 04013KT 16/16 A2993 RMK A01 T01620160  RH  098%=      5-min Rain = 0
KCL2 240052Z 04012KT 16/16 A2992 RMK A01 T01620159  RH  098%=      5-min Rain = 0
KCL2 240053Z 03011KT 16/16 A2992 RMK A01 T01620159  RH  098%=      5-min Rain = 0
KCL2 240054Z 03014KT 16/16 A2992 RMK A01 T01620159  RH  098%=      5-min Rain = 0
KCL2 240055Z 03012KT 16/16 A2992 RMK A01 T01620159  RH  098%=      5-min Rain = 0
KCL2 240056Z 03013KT 16/16 A2992 RMK A01 T01620159  RH  098%=      5-min Rain = 0
KCL2 240057Z 03013KT 16/16 A2992 RMK A01 T01620160  RH  098%=      5-min Rain = 0
KCL2 240058Z 03013KT 16/16 A2992 RMK A01 T01620159  RH  098%=      5-min Rain = 0
KCL2 240059Z 03015KT 16/16 A2992 RMK A01 T01620160  RH  098%=      5-min Rain = 0
KCL2 240100Z 02016KT 16/16 A2992 RMK A01 T01620160  RH  098%=      5-min Rain = 0
KCL2 240101Z 02011KT 16/16 A2992 RMK A01 T01620159  RH  098%=      5-min Rain = 0
KCL2 240102Z 03014KT 16/16 A2992 RMK A01 T01620159  RH  098%=      5-min Rain = 0
KCL2 240103Z 03011KT 16/16 A2992 RMK A01 T01620160  RH  098%=      5-min Rain = 0
KCL2 240104Z 03012KT 16/16 A2993 RMK A01 T01620160  RH  098%=      5-min Rain = 0
KCL2 240105Z 03011KT 16/16 A2994 RMK A01 T01620160  RH  098%=      5-min Rain = 0
KCL2 240106Z 03011KT 16/16 A2994 RMK A01 T01630160  RH  098%=      5-min Rain = 0
KCL2 240107Z 02016KT 16/16 A2994 RMK A01 T01630160  RH  098%=      5-min Rain = 0
KCL2 240108Z 02014KT 16/16 A2994 RMK A01 T01630160  RH  098%=      5-min Rain = 0
KCL2 240109Z 02012KT 16/16 A2994 RMK A01 T01630160  RH  098%=      5-min Rain = 0
KCL2 240110Z 02011KT 16/16 A2994 RMK A01 T01630160  RH  098%=      5-min Rain = 0
KCL2 240111Z 01013KT 16/16 A2993 RMK A01 T01630161  RH  098%=      5-min Rain = 0
KCL2 240112Z 01013G18KT 16/16 A2993 RMK A01 T01630160  RH  098%=      5-min Rain = 0
KCL2 240113Z 01013G19KT 16/16 A2993 RMK A01 T01630160  RH  098%=      5-min Rain = 0
KCL2 240114Z 02014G19KT 16/16 A2993 RMK A01 T01630160  RH  098%=      5-min Rain = 0
KCL2 240115Z 02012KT 16/16 A2993 RMK A01 T01630160  RH  098%=      5-min Rain = 0
KCL2 240116Z 01014KT 16/16 A2993 RMK A01 T01630160  RH  098%=      5-min Rain = 0
KCL2 240117Z 01012KT 16/16 A2994 RMK A01 T01630160  RH  098%=      5-min Rain = 0
KCL2 240118Z 01013KT 16/16 A2994 RMK A01 T01630160  RH  098%=      5-min Rain = 0
KCL2 240119Z 01012KT 16/16 A2994 RMK A01 T01630160  RH  098%=      5-min Rain = 0.01
KCL2 240120Z 01014KT 16/16 A2994 RMK A01 T01630161  RH  098%=      5-min Rain = 0
KCL2 240121Z 01014KT 16/16 A2994 RMK A01 T01630161  RH  098%=      5-min Rain = 0
KCL2 240122Z 01011KT 16/16 A2995 RMK A01 T01630161  RH  098%=      5-min Rain = 0
KCL2 240123Z 01009KT 16/16 A2995 RMK A01 T01630161  RH  098%=      5-min Rain = 0
KCL2 240124Z 01011KT 16/16 A2995 RMK A01 T01640161  RH  098%=      5-min Rain = 0
KCL2 240125Z 02013G19KT 16/16 A2995 RMK A01 T01640161  RH  098%=      5-min Rain = 0.01
KCL2 240126Z 02012G17KT 16/16 A2995 RMK A01 T01640160  RH  098%=      5-min Rain = 0
KCL2 240127Z 02012KT 16/16 A2995 RMK A01 T01640160  RH  098%=      5-min Rain = 0
KCL2 240128Z 02012KT 16/16 A2995 RMK A01 T01640160  RH  097%=      5-min Rain = 0
KCL2 240129Z 01012KT 16/16 A2996 RMK A01 T01640160  RH  097%=      5-min Rain = 0
KCL2 240130Z 02010KT 16/16 A2996 RMK A01 T01640160  RH  097%=      5-min Rain = 0.01
KCL2 240131Z 04008KT 17/16 A2996 RMK A01 T01650160  RH  097%=      5-min Rain = 0
KCL2 240132Z 04007KT 16/16 A2996 RMK A01 T01640160  RH  097%=      5-min Rain = 0.01
KCL2 240133Z 05009KT 16/16 A2996 RMK A01 T01640160  RH  097%=      5-min Rain = 0.01
KCL2 240134Z 05010KT 16/16 A2996 RMK A01 T01640159  RH  097%=      5-min Rain = 0
KCL2 240135Z 06012KT 16/16 A2996 RMK A01 T01640158  RH  096%=      5-min Rain = 0.01
KCL2 240136Z 05008KT 16/16 A2996 RMK A01 T01640157  RH  096%=      5-min Rain = 0.01
KCL2 240137Z 07007KT 16/16 A2996 RMK A01 T01640157  RH  096%=      5-min Rain = 0
KCL2 240138Z 06008KT 16/16 A2996 RMK A01 T01640157  RH  096%=      5-min Rain = 0.02
KCL2 240139Z 04005KT 16/16 A2996 RMK A01 T01640157  RH  096%=      5-min Rain = 0.01
KCL2 240140Z 05006KT 16/16 A2996 RMK A01 T01640157  RH  096%=      5-min Rain = 0
KCL2 240141Z 04009KT 16/16 A2996 RMK A01 T01640156  RH  095%=      5-min Rain = 0.01
KCL2 240142Z 05008KT 16/16 A2995 RMK A01 T01630156  RH  095%=      5-min Rain = 0
KCL2 240143Z 05009KT 16/16 A2995 RMK A01 T01630156  RH  096%=      5-min Rain = 0.01
KCL2 240144Z 05011KT 16/16 A2994 RMK A01 T01630156  RH  096%=      5-min Rain = 0
KCL2 240145Z 07012KT 16/16 A2994 RMK A01 T01630156  RH  096%=      5-min Rain = 0
KCL2 240146Z 07010KT 16/16 A2994 RMK A01 T01630156  RH  096%=      5-min Rain = 0.01
KCL2 240147Z 07011KT 16/16 A2994 RMK A01 T01630157  RH  096%=      5-min Rain = 0
KCL2 240148Z 07011KT 16/16 A2994 RMK A01 T01630157  RH  096%=      5-min Rain = 0
KCL2 240149Z 07011KT 16/16 A2994 RMK A01 T01630157  RH  096%=      5-min Rain = 0.01
KCL2 240150Z 08010KT 16/16 A2994 RMK A01 T01620156  RH  096%=      5-min Rain = 0
KCL2 240151Z 07011KT 16/16 A2993 RMK A01 T01620156  RH  096%=      5-min Rain = 0
KCL2 240152Z 09013KT 16/16 A2994 RMK A01 T01620157  RH  096%=      5-min Rain = 0
KCL2 240153Z 08013G19KT 16/16 A2994 RMK A01 T01630157  RH  097%=      5-min Rain = 0
KCL2 240154Z 08013G20KT 16/16 A2994 RMK A01 T01620156  RH  096%=      5-min Rain = 0.01
KCL2 240155Z 08011KT 16/16 A2994 RMK A01 T01620157  RH  097%=      5-min Rain = 0
KCL2 240156Z 08013KT 16/16 A2994 RMK A01 T01620157  RH  097%=      5-min Rain = 0
KCL2 240157Z 08013KT 16/16 A2994 RMK A01 T01620157  RH  097%=      5-min Rain = 0
KCL2 240158Z 08011KT 16/16 A2994 RMK A01 T01620156  RH  097%=      5-min Rain = 0
KCL2 240159Z 07013KT 16/16 A2994 RMK A01 T01610156  RH  097%=      5-min Rain = 0
KCL2 240200Z 07012KT 16/16 A2994 RMK A01 T01620157  RH  097%=      5-min Rain = 0
KCL2 240201Z 07012KT 16/16 A2994 RMK A01 T01620157  RH  097%=      5-min Rain = 0
KCL2 240202Z 07018G23KT 16/16 A2993 RMK A01 T01610157  RH  097%=      5-min Rain = 0
KCL2 240203Z 06017KT 16/16 A2993 RMK A01 T01610157  RH  097%=      5-min Rain = 0
KCL2 240204Z 06019KT 16/16 A2993 RMK A01 T01610157  RH  097%=      5-min Rain = 0
KCL2 240205Z 06019KT 16/16 A2992 RMK A01 T01610156  RH  097%=      5-min Rain = 0
KCL2 240206Z 06015KT 16/16 A2992 RMK A01 T01610157  RH  097%=      5-min Rain = 0
KCL2 240207Z 05018KT 16/16 A2993 RMK A01 T01610157  RH  097%=      5-min Rain = 0
KCL2 240208Z 06016G21KT 16/16 A2993 RMK A01 T01610156  RH  097%=      5-min Rain = 0
KCL2 240209Z 05017KT 16/16 A2993 RMK A01 T01610157  RH  097%=      5-min Rain = 0
KCL2 240210Z 05016KT 16/16 A2993 RMK A01 T01610156  RH  097%=      5-min Rain = 0
KCL2 240211Z 06014KT 16/16 A2994 RMK A01 T01610156  RH  097%=      5-min Rain = 0
KCL2 240212Z 06012KT 16/16 A2994 RMK A01 T01610156  RH  097%=      5-min Rain = 0
KCL2 240213Z 06011KT 16/16 A2994 RMK A01 T01610157  RH  097%=      5-min Rain = 0
KCL2 240214Z 06015KT 16/16 A2994 RMK A01 T01610157  RH  097%=      5-min Rain = 0
KCL2 240215Z 06014KT 16/16 A2994 RMK A01 T01610157  RH  097%=      5-min Rain = 0
KCL2 240216Z 06013KT 16/16 A2993 RMK A01 T01610157  RH  097%=      5-min Rain = 0
KCL2 240217Z 06013G18KT 16/16 A2993 RMK A01 T01610157  RH  097%=      5-min Rain = 0
KCL2 240218Z 06014KT 16/16 A2993 RMK A01 T01610157  RH  097%=      5-min Rain = 0
KCL2 240219Z 05013KT 16/16 A2993 RMK A01 T01610157  RH  097%=      5-min Rain = 0
KCL2 240220Z 06012KT 16/16 A2993 RMK A01 T01610157  RH  097%=      5-min Rain = 0
KCL2 240221Z 06012KT 16/16 A2994 RMK A01 T01600157  RH  098%=      5-min Rain = 0
KCL2 240222Z 06014KT 16/16 A2994 RMK A01 T01610157  RH  098%=      5-min Rain = 0
KCL2 240223Z 06017KT 16/16 A2993 RMK A01 T01600156  RH  098%=      5-min Rain = 0
KCL2 240224Z 06016KT 16/16 A2993 RMK A01 T01600156  RH  097%=      5-min Rain = 0
KCL2 240225Z 06013KT 16/16 A2993 RMK A01 T01600156  RH  097%=      5-min Rain = 0
KCL2 240226Z 06012KT 16/16 A2993 RMK A01 T01600156  RH  097%=      5-min Rain = 0
KCL2 240227Z 06015KT 16/16 A2993 RMK A01 T01600156  RH  098%=      5-min Rain = 0
KCL2 240228Z 06015KT 16/16 A2993 RMK A01 T01600156  RH  098%=      5-min Rain = 0
KCL2 240229Z 06015KT 16/16 A2993 RMK A01 T01600156  RH  098%=      5-min Rain = 0
KCL2 240230Z 06015KT 16/16 A2993 RMK A01 T01600156  RH  098%=      5-min Rain = 0
KCL2 240231Z 06014KT 16/16 A2993 RMK A01 T01600156  RH  098%=      5-min Rain = 0
KCL2 240232Z 06014KT 16/16 A2993 RMK A01 T01600157  RH  098%=      5-min Rain = 0
KCL2 240233Z 07013G18KT 16/16 A2993 RMK A01 T01600157  RH  098%=      5-min Rain = 0
KCL2 240234Z 06013KT 16/16 A2993 RMK A01 T01600157  RH  098%=      5-min Rain = 0
KCL2 240235Z 06015KT 16/16 A2993 RMK A01 T01600157  RH  098%=      5-min Rain = 0
KCL2 240236Z 06017KT 16/16 A2993 RMK A01 T01600157  RH  098%=      5-min Rain = 0
KCL2 240237Z 06013KT 16/16 A2993 RMK A01 T01600157  RH  098%=      5-min Rain = 0
KCL2 240238Z 06013KT 16/16 A2993 RMK A01 T01600157  RH  098%=      5-min Rain = 0
KCL2 240239Z 06013KT 16/16 A2993 RMK A01 T01600157  RH  098%=      5-min Rain = 0
KCL2 240240Z 06013KT 16/16 A2993 RMK A01 T01600158  RH  098%=      5-min Rain = 0
KCL2 240241Z 06013KT 16/16 A2993 RMK A01 T01600157  RH  098%=      5-min Rain = 0
KCL2 240242Z 06014KT 16/16 A2993 RMK A01 T01600157  RH  098%=      5-min Rain = 0
KCL2 240243Z 06015KT 16/16 A2993 RMK A01 T01600157  RH  098%=      5-min Rain = 0
KCL2 240244Z 06016KT 16/16 A2993 RMK A01 T01600157  RH  098%=      5-min Rain = 0
KCL2 240245Z 05016KT 16/16 A2993 RMK A01 T01600157  RH  098%=      5-min Rain = 0
KCL2 240246Z 05013G18KT 16/16 A2993 RMK A01 T01600157  RH  098%=      5-min Rain = 0
KCL2 240247Z 05014KT 16/16 A2993 RMK A01 T01600156  RH  098%=      5-min Rain = 0
KCL2 240248Z 06013KT 16/16 A2993 RMK A01 T01600156  RH  098%=      5-min Rain = 0
KCL2 240249Z 06013KT 16/16 A2993 RMK A01 T01590156  RH  098%=      5-min Rain = 0
KCL2 240250Z 06013KT 16/16 A2993 RMK A01 T01590156  RH  098%=      5-min Rain = 0
KCL2 240251Z 05012KT 16/16 A2993 RMK A01 T01590156  RH  098%=      5-min Rain = 0
KCL2 240252Z 05013KT 16/16 A2993 RMK A01 T01590156  RH  098%=      5-min Rain = 0
KCL2 240253Z 05014KT 16/16 A2993 RMK A01 T01590156  RH  098%=      5-min Rain = 0
KCL2 240254Z 04009KT 16/16 A2994 RMK A01 T01590156  RH  098%=      5-min Rain = 0
KCL2 240255Z 03008KT 16/16 A2995 RMK A01 T01590156  RH  098%=      5-min Rain = 0
KCL2 240256Z 36010KT 16/16 A2995 RMK A01 T01590156  RH  098%=      5-min Rain = 0
KCL2 240257Z 34010KT 16/16 A2996 RMK A01 T01590156  RH  098%=      5-min Rain = 0
KCL2 240258Z 33011KT 16/16 A2996 RMK A01 T01590156  RH  098%=      5-min Rain = 0
KCL2 240259Z 33010KT 16/16 A2996 RMK A01 T01590156  RH  098%=      5-min Rain = 0
KCL2 240300Z 33010KT 16/16 A2997 RMK A01 T01590156  RH  098%=      5-min Rain = 0
KCL2 240301Z 33009KT 16/16 A2997 RMK A01 T01590157  RH  098%=      5-min Rain = 0
KCL2 240302Z 34009KT 16/16 A2997 RMK A01 T01580156  RH  098%=      5-min Rain = 0
KCL2 240303Z 34008KT 16/16 A2997 RMK A01 T01580156  RH  099%=      5-min Rain = 0
KCL2 240304Z 33008KT 16/16 A2997 RMK A01 T01580156  RH  099%=      5-min Rain = 0
KCL2 240305Z 34009KT 16/16 A2997 RMK A01 T01580156  RH  099%=      5-min Rain = 0
KCL2 240306Z 35008KT 16/16 A2996 RMK A01 T01580156  RH  099%=      5-min Rain = 0
KCL2 240307Z 35009KT 16/16 A2996 RMK A01 T01580156  RH  099%=      5-min Rain = 0
KCL2 240308Z 00009KT 16/16 A2995 RMK A01 T01570155  RH  099%=      5-min Rain = 0
KCL2 240309Z 01010KT 16/16 A2995 RMK A01 T01580156  RH  099%=      5-min Rain = 0
KCL2 240310Z 01011KT 16/16 A2994 RMK A01 T01570156  RH  099%=      5-min Rain = 0
KCL2 240311Z 00010KT 16/16 A2994 RMK A01 T01580156  RH  099%=      5-min Rain = 0
KCL2 240312Z 01009KT 16/16 A2994 RMK A01 T01570156  RH  099%=      5-min Rain = 0
KCL2 240313Z 01008KT 16/16 A2994 RMK A01 T01570156  RH  099%=      5-min Rain = 0
KCL2 240314Z 01009KT 16/16 A2994 RMK A01 T01570156  RH  099%=      5-min Rain = 0
KCL2 240315Z 36010KT 16/16 A2994 RMK A01 T01570156  RH  099%=      5-min Rain = 0.01
KCL2 240316Z 00011KT 16/16 A2994 RMK A01 T01580156  RH  099%=      5-min Rain = 0
KCL2 240317Z 00010KT 16/16 A2995 RMK A01 T01570156  RH  099%=      5-min Rain = 0
KCL2 240318Z 01008KT 16/16 A2995 RMK A01 T01570155  RH  099%=      5-min Rain = 0
KCL2 240319Z 00007KT 16/16 A2995 RMK A01 T01570155  RH  099%=      5-min Rain = 0
KCL2 240320Z 01010KT 16/16 A2995 RMK A01 T01570156  RH  099%=      5-min Rain = 0
KCL2 240321Z 01009KT 16/16 A2995 RMK A01 T01570156  RH  099%=      5-min Rain = 0
KCL2 240322Z 01008KT 16/16 A2996 RMK A01 T01570156  RH  099%=      5-min Rain = 0.01
KCL2 240323Z 01007KT 16/16 A2996 RMK A01 T01570156  RH  099%=      5-min Rain = 0
KCL2 240324Z 02006KT 16/16 A2996 RMK A01 T01570156  RH  099%=      5-min Rain = 0
KCL2 240325Z 02005KT 16/16 A2996 RMK A01 T01570156  RH  099%=      5-min Rain = 0
KCL2 240326Z 02007KT 16/16 A2996 RMK A01 T01570156  RH  099%=      5-min Rain = 0
KCL2 240327Z 02007KT 16/16 A2995 RMK A01 T01570156  RH  099%=      5-min Rain = 0
KCL2 240328Z 02007KT 16/16 A2995 RMK A01 T01570156  RH  099%=      5-min Rain = 0
KCL2 240329Z 02006KT 16/16 A2995 RMK A01 T01570156  RH  099%=      5-min Rain = 0
KCL2 240330Z 03006KT 16/16 A2995 RMK A01 T01570156  RH  099%=      5-min Rain = 0
KCL2 240331Z 02008KT 16/16 A2995 RMK A01 T01570156  RH  099%=      5-min Rain = 0
KCL2 240332Z 03008KT 16/16 A2995 RMK A01 T01570155  RH  099%=      5-min Rain = 0
KCL2 240333Z 03006KT 16/16 A2995 RMK A01 T01560155  RH  099%=      5-min Rain = 0
KCL2 240334Z 03008KT 16/16 A2995 RMK A01 T01570155  RH  099%=      5-min Rain = 0
KCL2 240335Z 03008KT 16/16 A2995 RMK A01 T01570155  RH  099%=      5-min Rain = 0
KCL2 240336Z 02006KT 16/16 A2995 RMK A01 T01570155  RH  099%=      5-min Rain = 0
KCL2 240337Z 03007KT 16/16 A2996 RMK A01 T01570155  RH  099%=      5-min Rain = 0
KCL2 240338Z 03005KT 16/16 A2996 RMK A01 T01560155  RH  099%=      5-min Rain = 0
KCL2 240339Z 03006KT 16/16 A2996 RMK A01 T01560155  RH  099%=      5-min Rain = 0
KCL2 240340Z 02005KT 16/16 A2996 RMK A01 T01570155  RH  099%=      5-min Rain = 0
KCL2 240341Z 02005KT 16/16 A2996 RMK A01 T01570155  RH  099%=      5-min Rain = 0
KCL2 240342Z 01005KT 16/16 A2996 RMK A01 T01570155  RH  099%=      5-min Rain = 0
KCL2 240343Z 01007KT 16/16 A2996 RMK A01 T01570155  RH  099%=      5-min Rain = 0
KCL2 240344Z 02007KT 16/16 A2996 RMK A01 T01570155  RH  099%=      5-min Rain = 0
KCL2 240345Z 02007KT 16/16 A2996 RMK A01 T01570155  RH  099%=      5-min Rain = 0
KCL2 240346Z 02006KT 16/16 A2996 RMK A01 T01570155  RH  099%=      5-min Rain = 0
KCL2 240347Z 02004KT 16/16 A2996 RMK A01 T01570155  RH  099%=      5-min Rain = 0
KCL2 240348Z 02006KT 16/16 A2996 RMK A01 T01570155  RH  099%=      5-min Rain = 0
KCL2 240349Z 02006KT 16/16 A2996 RMK A01 T01570155  RH  099%=      5-min Rain = 0
KCL2 240350Z 01006KT 16/16 A2996 RMK A01 T01570155  RH  099%=      5-min Rain = 0
KCL2 240351Z 01004KT 16/16 A2996 RMK A01 T01570155  RH  099%=      5-min Rain = 0
KCL2 240352Z 02006KT 16/16 A2996 RMK A01 T01570155  RH  099%=      5-min Rain = 0
KCL2 240353Z 02007KT 16/16 A2996 RMK A01 T01570155  RH  099%=      5-min Rain = 0
KCL2 240354Z 02007KT 16/16 A2996 RMK A01 T01570155  RH  099%=      5-min Rain = 0
KCL2 240355Z 03006KT 16/16 A2996 RMK A01 T01570155  RH  099%=      5-min Rain = 0
KCL2 240356Z 03005KT 16/16 A2996 RMK A01 T01570155  RH  099%=      5-min Rain = 0
KCL2 240357Z 03005KT 16/16 A2996 RMK A01 T01570156  RH  099%=      5-min Rain = 0
KCL2 240358Z 04006KT 16/16 A2996 RMK A01 T01570155  RH  099%=      5-min Rain = 0
KCL2 240359Z 05005KT 16/16 A2995 RMK A01 T01580155  RH  099%=      5-min Rain = 0
KCL2 240400Z 06005KT 16/16 A2995 RMK A01 T01570155  RH  099%=      5-min Rain = 0
KCL2 240401Z 04007KT 16/16 A2995 RMK A01 T01570155  RH  099%=      5-min Rain = 0
KCL2 240402Z 05007KT 16/15 A2996 RMK A01 T01570154  RH  098%=      5-min Rain = 0
KCL2 240403Z 03008KT 16/16 A2995 RMK A01 T01570155  RH  098%=      5-min Rain = 0
KCL2 240404Z 02008KT 16/15 A2996 RMK A01 T01570154  RH  098%=      5-min Rain = 0
KCL2 240405Z 02007KT 16/15 A2996 RMK A01 T01570154  RH  098%=      5-min Rain = 0
KCL2 240406Z 01006KT 16/15 A2996 RMK A01 T01570154  RH  098%=      5-min Rain = 0
KCL2 240407Z 01007KT 16/16 A2996 RMK A01 T01580155  RH  098%=      5-min Rain = 0
KCL2 240408Z 00008KT 16/16 A2997 RMK A01 T01580155  RH  098%=      5-min Rain = 0
KCL2 240409Z 36007KT 16/16 A2997 RMK A01 T01580155  RH  098%=      5-min Rain = 0
KCL2 240410Z 35007KT 16/16 A2997 RMK A01 T01580155  RH  098%=      5-min Rain = 0
KCL2 240411Z 35007KT 16/16 A2998 RMK A01 T01580155  RH  098%=      5-min Rain = 0
KCL2 240412Z 36006KT 16/16 A2998 RMK A01 T01580155  RH  098%=      5-min Rain = 0
KCL2 240413Z 35006KT 16/16 A2998 RMK A01 T01580155  RH  098%=      5-min Rain = 0
KCL2 240414Z 35007KT 16/16 A2998 RMK A01 T01580155  RH  098%=      5-min Rain = 0
KCL2 240415Z 35007KT 16/15 A2998 RMK A01 T01570154  RH  098%=      5-min Rain = 0
KCL2 240416Z 35007KT 16/16 A2999 RMK A01 T01570155  RH  098%=      5-min Rain = 0.01
KCL2 240417Z 35005KT 16/16 A2999 RMK A01 T01570155  RH  099%=      5-min Rain = 0
KCL2 240418Z 35008KT 16/16 A2999 RMK A01 T01570155  RH  099%=      5-min Rain = 0
KCL2 240419Z 34007KT 16/16 A2999 RMK A01 T01570155  RH  099%=      5-min Rain = 0
KCL2 240420Z 35010KT 16/16 A2999 RMK A01 T01570155  RH  099%=      5-min Rain = 0
KCL2 240421Z 34008KT 16/15 A2999 RMK A01 T01560154  RH  099%=      5-min Rain = 0
KCL2 240422Z 34009KT 16/15 A2999 RMK A01 T01560154  RH  099%=      5-min Rain = 0.02
KCL2 240423Z 34011KT 16/16 A30 RMK A01 T01560155  RH  099%=      5-min Rain = 0
KCL2 240424Z 33011KT 16/15 A30 RMK A01 T01560154  RH  099%=      5-min Rain = 0.01
KCL2 240425Z 33011KT 16/15 A3001 RMK A01 T01560154  RH  099%=      5-min Rain = 0
KCL2 240426Z 33014KT 16/15 A3001 RMK A01 T01560154  RH  099%=      5-min Rain = 0.01
KCL2 240427Z 33015KT 16/15 A3001 RMK A01 T01550154  RH  099%=      5-min Rain = 0
KCL2 240428Z 33017KT 16/15 A3002 RMK A01 T01550153  RH  099%=      5-min Rain = 0
KCL2 240429Z 33015KT 15/15 A3002 RMK A01 T01540152  RH  099%=      5-min Rain = 0.01
KCL2 240430Z 33015KT 15/15 A3002 RMK A01 T01540152  RH  099%=      5-min Rain = 0
KCL2 240431Z 33015KT 15/15 A3002 RMK A01 T01530152  RH  099%=      5-min Rain = 0
KCL2 240432Z 33018KT 15/15 A3002 RMK A01 T01530151  RH  099%=      5-min Rain = 0
KCL2 240433Z 34016KT 15/15 A3002 RMK A01 T01520151  RH  099%=      5-min Rain = 0
KCL2 240434Z 34014KT 15/15 A3001 RMK A01 T01520150  RH  099%=      5-min Rain = 0.01
KCL2 240435Z 33014KT 15/15 A3002 RMK A01 T01520150  RH  099%=      5-min Rain = 0
KCL2 240436Z 33013G19KT 15/15 A3002 RMK A01 T01510150  RH  099%=      5-min Rain = 0.01
KCL2 240437Z 33016G21KT 15/15 A3002 RMK A01 T01510149  RH  099%=      5-min Rain = 0.01
KCL2 240438Z 33015KT 15/15 A3003 RMK A01 T01510149  RH  099%=      5-min Rain = 0.01
KCL2 240439Z 32014KT 15/15 A3003 RMK A01 T01510149  RH  099%=      5-min Rain = 0
KCL2 240440Z 31013G18KT 15/15 A3003 RMK A01 T01500149  RH  099%=      5-min Rain = 0
KCL2 240441Z 32013KT 15/15 A3003 RMK A01 T01500149  RH  099%=      5-min Rain = 0.01
KCL2 240442Z 34011KT 15/15 A3003 RMK A01 T01500149  RH  099%=      5-min Rain = 0.02
KCL2 240443Z 00010KT 15/15 A3002 RMK A01 T01500149  RH  099%=      5-min Rain = 0
KCL2 240444Z 02014KT 15/15 A3001 RMK A01 T01490148  RH  099%=      5-min Rain = 0
KCL2 240445Z 01015KT 15/15 A3001 RMK A01 T01490148  RH  099%=      5-min Rain = 0.01
KCL2 240446Z 01014KT 15/15 A30 RMK A01 T01490148  RH  099%=      5-min Rain = 0
KCL2 240447Z 36011KT 15/15 A30 RMK A01 T01490148  RH  099%=      5-min Rain = 0
KCL2 240448Z 00009KT 15/15 A30 RMK A01 T01490148  RH  099%=      5-min Rain = 0
KCL2 240449Z 00009KT 15/15 A2999 RMK A01 T01490148  RH  099%=      5-min Rain = 0
KCL2 240450Z 00010KT 15/15 A2999 RMK A01 T01490148  RH  099%=      5-min Rain = 0
KCL2 240451Z 35010KT 15/15 A30 RMK A01 T01490148  RH  099%=      5-min Rain = 0
KCL2 240452Z 35010KT 15/15 A30 RMK A01 T01490148  RH  099%=      5-min Rain = 0.01
KCL2 240453Z 36009KT 15/15 A30 RMK A01 T01490148  RH  099%=      5-min Rain = 0
KCL2 240454Z 35011KT 15/15 A3001 RMK A01 T01490148  RH  099%=      5-min Rain = 0
KCL2 240455Z 34012KT 15/15 A3001 RMK A01 T01490148  RH  099%=      5-min Rain = 0
KCL2 240456Z 34011KT 15/15 A3001 RMK A01 T01490148  RH  099%=      5-min Rain = 0.01
KCL2 240457Z 34011KT 15/15 A3001 RMK A01 T01490148  RH  099%=      5-min Rain = 0
KCL2 240458Z 33011G16KT 15/15 A3001 RMK A01 T01480147  RH  099%=      5-min Rain = 0
KCL2 240459Z 34013KT 15/15 A30 RMK A01 T01480147  RH  099%=      5-min Rain = 0

Page generated in 0.0726 seconds.